<?xml version="1.0" encoding="UTF-8" standalone="no" ?>
<gpx xmlns="http://www.topografix.com/GPX/1/1" xmlns:xsi="http://www.w3.org/2001/XMLSchema-instance" xsi:schemaLocation="http://www.topografix.com/GPX/1/1 http://www.topografix.com/GPX/1/1/gpx.xsd" version="1.1" creator="VisuGPX - https://www.visugpx.com">
  <metadata>
    <name>Pic FOURCAT depuis col de MARMARE 29 avril 2017</name>
    <desc><![CDATA[Très beau parcours avec une très belle partie en crête.
Sans difficulté technique.]]></desc>
  </metadata>
  <trk>
    <name><![CDATA[29-AVR-17 14:54:55]]></name>
    <trkseg>
      <trkpt lat="42.76631" lon="1.85078">
        <ele>1361.84</ele>
        <time>2017-04-29T06:36:03Z</time>
      </trkpt>
      <trkpt lat="42.7663" lon="1.85084">
        <ele>1364.25</ele>
        <time>2017-04-29T06:40:35Z</time>
      </trkpt>
      <trkpt lat="42.76626" lon="1.85083">
        <ele>1363.77</ele>
        <time>2017-04-29T06:42:06Z</time>
      </trkpt>
      <trkpt lat="42.76625" lon="1.85071">
        <ele>1363.77</ele>
        <time>2017-04-29T06:43:57Z</time>
      </trkpt>
      <trkpt lat="42.76635" lon="1.8506">
        <ele>1363.77</ele>
        <time>2017-04-29T06:44:24Z</time>
      </trkpt>
      <trkpt lat="42.76639" lon="1.85049">
        <ele>1364.25</ele>
        <time>2017-04-29T06:44:34Z</time>
      </trkpt>
      <trkpt lat="42.76645" lon="1.85036">
        <ele>1365.21</ele>
        <time>2017-04-29T06:44:45Z</time>
      </trkpt>
      <trkpt lat="42.7665" lon="1.85024">
        <ele>1366.17</ele>
        <time>2017-04-29T06:44:57Z</time>
      </trkpt>
      <trkpt lat="42.76657" lon="1.8501">
        <ele>1367.13</ele>
        <time>2017-04-29T06:45:10Z</time>
      </trkpt>
      <trkpt lat="42.76666" lon="1.85002">
        <ele>1368.57</ele>
        <time>2017-04-29T06:45:23Z</time>
      </trkpt>
      <trkpt lat="42.76678" lon="1.84994">
        <ele>1369.54</ele>
        <time>2017-04-29T06:45:37Z</time>
      </trkpt>
      <trkpt lat="42.76689" lon="1.84986">
        <ele>1370.5</ele>
        <time>2017-04-29T06:45:50Z</time>
      </trkpt>
      <trkpt lat="42.76705" lon="1.84977">
        <ele>1372.42</ele>
        <time>2017-04-29T06:46:06Z</time>
      </trkpt>
      <trkpt lat="42.76715" lon="1.84969">
        <ele>1375.3</ele>
        <time>2017-04-29T06:46:22Z</time>
      </trkpt>
      <trkpt lat="42.76724" lon="1.84961">
        <ele>1377.71</ele>
        <time>2017-04-29T06:46:37Z</time>
      </trkpt>
      <trkpt lat="42.76732" lon="1.8495">
        <ele>1379.15</ele>
        <time>2017-04-29T06:46:51Z</time>
      </trkpt>
      <trkpt lat="42.76739" lon="1.84936">
        <ele>1380.59</ele>
        <time>2017-04-29T06:47:05Z</time>
      </trkpt>
      <trkpt lat="42.76745" lon="1.84925">
        <ele>1382.03</ele>
        <time>2017-04-29T06:47:17Z</time>
      </trkpt>
      <trkpt lat="42.76755" lon="1.84916">
        <ele>1383.47</ele>
        <time>2017-04-29T06:47:32Z</time>
      </trkpt>
      <trkpt lat="42.76766" lon="1.84906">
        <ele>1384.44</ele>
        <time>2017-04-29T06:47:45Z</time>
      </trkpt>
      <trkpt lat="42.76773" lon="1.84896">
        <ele>1385.88</ele>
        <time>2017-04-29T06:47:57Z</time>
      </trkpt>
      <trkpt lat="42.76781" lon="1.84884">
        <ele>1386.84</ele>
        <time>2017-04-29T06:48:08Z</time>
      </trkpt>
      <trkpt lat="42.7679" lon="1.84877">
        <ele>1386.84</ele>
        <time>2017-04-29T06:48:21Z</time>
      </trkpt>
      <trkpt lat="42.76811" lon="1.84875">
        <ele>1384.92</ele>
        <time>2017-04-29T06:48:41Z</time>
      </trkpt>
      <trkpt lat="42.76832" lon="1.84873">
        <ele>1385.88</ele>
        <time>2017-04-29T06:49:01Z</time>
      </trkpt>
      <trkpt lat="42.76852" lon="1.84865">
        <ele>1388.76</ele>
        <time>2017-04-29T06:49:21Z</time>
      </trkpt>
      <trkpt lat="42.76868" lon="1.84857">
        <ele>1390.68</ele>
        <time>2017-04-29T06:49:41Z</time>
      </trkpt>
      <trkpt lat="42.76878" lon="1.84844">
        <ele>1394.05</ele>
        <time>2017-04-29T06:50:44Z</time>
      </trkpt>
      <trkpt lat="42.7689" lon="1.84839">
        <ele>1399.34</ele>
        <time>2017-04-29T06:51:10Z</time>
      </trkpt>
      <trkpt lat="42.76904" lon="1.84841">
        <ele>1404.62</ele>
        <time>2017-04-29T06:51:44Z</time>
      </trkpt>
      <trkpt lat="42.76918" lon="1.84845">
        <ele>1410.87</ele>
        <time>2017-04-29T06:52:15Z</time>
      </trkpt>
      <trkpt lat="42.76934" lon="1.84853">
        <ele>1417.12</ele>
        <time>2017-04-29T06:52:57Z</time>
      </trkpt>
      <trkpt lat="42.7695" lon="1.8486">
        <ele>1424.81</ele>
        <time>2017-04-29T06:53:48Z</time>
      </trkpt>
      <trkpt lat="42.76969" lon="1.84868">
        <ele>1430.1</ele>
        <time>2017-04-29T06:55:06Z</time>
      </trkpt>
      <trkpt lat="42.76984" lon="1.84874">
        <ele>1436.35</ele>
        <time>2017-04-29T06:55:44Z</time>
      </trkpt>
      <trkpt lat="42.77" lon="1.84874">
        <ele>1439.71</ele>
        <time>2017-04-29T06:56:11Z</time>
      </trkpt>
      <trkpt lat="42.77011" lon="1.84878">
        <ele>1441.63</ele>
        <time>2017-04-29T06:56:33Z</time>
      </trkpt>
      <trkpt lat="42.77043" lon="1.84871">
        <ele>1444.04</ele>
        <time>2017-04-29T06:56:58Z</time>
      </trkpt>
      <trkpt lat="42.77054" lon="1.84872">
        <ele>1445.48</ele>
        <time>2017-04-29T06:57:14Z</time>
      </trkpt>
      <trkpt lat="42.77065" lon="1.84869">
        <ele>1445.96</ele>
        <time>2017-04-29T06:57:27Z</time>
      </trkpt>
      <trkpt lat="42.77077" lon="1.84869">
        <ele>1446.92</ele>
        <time>2017-04-29T06:57:40Z</time>
      </trkpt>
      <trkpt lat="42.77086" lon="1.84867">
        <ele>1446.92</ele>
        <time>2017-04-29T06:57:52Z</time>
      </trkpt>
      <trkpt lat="42.77097" lon="1.84865">
        <ele>1447.4</ele>
        <time>2017-04-29T06:58:03Z</time>
      </trkpt>
      <trkpt lat="42.77108" lon="1.84866">
        <ele>1448.36</ele>
        <time>2017-04-29T06:58:17Z</time>
      </trkpt>
      <trkpt lat="42.77117" lon="1.8487">
        <ele>1449.32</ele>
        <time>2017-04-29T06:58:30Z</time>
      </trkpt>
      <trkpt lat="42.77126" lon="1.8487">
        <ele>1450.29</ele>
        <time>2017-04-29T06:58:41Z</time>
      </trkpt>
      <trkpt lat="42.77136" lon="1.8487">
        <ele>1451.25</ele>
        <time>2017-04-29T06:58:52Z</time>
      </trkpt>
      <trkpt lat="42.77146" lon="1.8487">
        <ele>1451.25</ele>
        <time>2017-04-29T06:59:01Z</time>
      </trkpt>
      <trkpt lat="42.77155" lon="1.84868">
        <ele>1450.77</ele>
        <time>2017-04-29T06:59:11Z</time>
      </trkpt>
      <trkpt lat="42.77162" lon="1.84863">
        <ele>1452.21</ele>
        <time>2017-04-29T06:59:22Z</time>
      </trkpt>
      <trkpt lat="42.77167" lon="1.84865">
        <ele>1452.69</ele>
        <time>2017-04-29T07:00:14Z</time>
      </trkpt>
      <trkpt lat="42.77176" lon="1.84865">
        <ele>1451.73</ele>
        <time>2017-04-29T07:00:26Z</time>
      </trkpt>
      <trkpt lat="42.77184" lon="1.8487">
        <ele>1449.81</ele>
        <time>2017-04-29T07:00:36Z</time>
      </trkpt>
      <trkpt lat="42.77193" lon="1.84865">
        <ele>1449.81</ele>
        <time>2017-04-29T07:00:45Z</time>
      </trkpt>
      <trkpt lat="42.77194" lon="1.84853">
        <ele>1451.73</ele>
        <time>2017-04-29T07:00:57Z</time>
      </trkpt>
      <trkpt lat="42.77198" lon="1.84841">
        <ele>1453.65</ele>
        <time>2017-04-29T07:01:10Z</time>
      </trkpt>
      <trkpt lat="42.77206" lon="1.84844">
        <ele>1454.61</ele>
        <time>2017-04-29T07:01:36Z</time>
      </trkpt>
      <trkpt lat="42.77214" lon="1.84844">
        <ele>1455.09</ele>
        <time>2017-04-29T07:01:48Z</time>
      </trkpt>
      <trkpt lat="42.77223" lon="1.8484">
        <ele>1455.57</ele>
        <time>2017-04-29T07:01:59Z</time>
      </trkpt>
      <trkpt lat="42.77232" lon="1.84836">
        <ele>1456.05</ele>
        <time>2017-04-29T07:02:10Z</time>
      </trkpt>
      <trkpt lat="42.77241" lon="1.84836">
        <ele>1456.53</ele>
        <time>2017-04-29T07:02:21Z</time>
      </trkpt>
      <trkpt lat="42.77251" lon="1.8483">
        <ele>1457.5</ele>
        <time>2017-04-29T07:02:33Z</time>
      </trkpt>
      <trkpt lat="42.77259" lon="1.84825">
        <ele>1458.46</ele>
        <time>2017-04-29T07:02:45Z</time>
      </trkpt>
      <trkpt lat="42.77268" lon="1.84821">
        <ele>1459.9</ele>
        <time>2017-04-29T07:02:57Z</time>
      </trkpt>
      <trkpt lat="42.77276" lon="1.84817">
        <ele>1461.34</ele>
        <time>2017-04-29T07:03:11Z</time>
      </trkpt>
      <trkpt lat="42.77284" lon="1.84813">
        <ele>1462.78</ele>
        <time>2017-04-29T07:03:24Z</time>
      </trkpt>
      <trkpt lat="42.77293" lon="1.84808">
        <ele>1464.23</ele>
        <time>2017-04-29T07:03:39Z</time>
      </trkpt>
      <trkpt lat="42.77303" lon="1.84808">
        <ele>1466.63</ele>
        <time>2017-04-29T07:03:52Z</time>
      </trkpt>
      <trkpt lat="42.77312" lon="1.8481">
        <ele>1469.03</ele>
        <time>2017-04-29T07:04:05Z</time>
      </trkpt>
      <trkpt lat="42.77321" lon="1.84809">
        <ele>1471.44</ele>
        <time>2017-04-29T07:04:21Z</time>
      </trkpt>
      <trkpt lat="42.7733" lon="1.84811">
        <ele>1471.92</ele>
        <time>2017-04-29T07:04:36Z</time>
      </trkpt>
      <trkpt lat="42.77339" lon="1.84817">
        <ele>1473.36</ele>
        <time>2017-04-29T07:04:50Z</time>
      </trkpt>
      <trkpt lat="42.77348" lon="1.84817">
        <ele>1474.32</ele>
        <time>2017-04-29T07:05:04Z</time>
      </trkpt>
      <trkpt lat="42.77357" lon="1.84818">
        <ele>1475.76</ele>
        <time>2017-04-29T07:05:17Z</time>
      </trkpt>
      <trkpt lat="42.77367" lon="1.84817">
        <ele>1477.2</ele>
        <time>2017-04-29T07:05:33Z</time>
      </trkpt>
      <trkpt lat="42.77372" lon="1.84821">
        <ele>1480.09</ele>
        <time>2017-04-29T07:05:58Z</time>
      </trkpt>
      <trkpt lat="42.77372" lon="1.8481">
        <ele>1479.61</ele>
        <time>2017-04-29T07:08:45Z</time>
      </trkpt>
      <trkpt lat="42.77375" lon="1.84798">
        <ele>1481.53</ele>
        <time>2017-04-29T07:09:00Z</time>
      </trkpt>
      <trkpt lat="42.77373" lon="1.84785">
        <ele>1484.41</ele>
        <time>2017-04-29T07:09:18Z</time>
      </trkpt>
      <trkpt lat="42.7737" lon="1.84774">
        <ele>1486.82</ele>
        <time>2017-04-29T07:09:34Z</time>
      </trkpt>
      <trkpt lat="42.7737" lon="1.84762">
        <ele>1488.74</ele>
        <time>2017-04-29T07:09:51Z</time>
      </trkpt>
      <trkpt lat="42.7737" lon="1.8475">
        <ele>1490.18</ele>
        <time>2017-04-29T07:10:05Z</time>
      </trkpt>
      <trkpt lat="42.77368" lon="1.84738">
        <ele>1490.18</ele>
        <time>2017-04-29T07:10:19Z</time>
      </trkpt>
      <trkpt lat="42.77365" lon="1.84725">
        <ele>1491.14</ele>
        <time>2017-04-29T07:10:33Z</time>
      </trkpt>
      <trkpt lat="42.77362" lon="1.84715">
        <ele>1491.62</ele>
        <time>2017-04-29T07:10:48Z</time>
      </trkpt>
      <trkpt lat="42.77364" lon="1.84705">
        <ele>1492.1</ele>
        <time>2017-04-29T07:11:10Z</time>
      </trkpt>
      <trkpt lat="42.77367" lon="1.84693">
        <ele>1493.06</ele>
        <time>2017-04-29T07:11:23Z</time>
      </trkpt>
      <trkpt lat="42.77367" lon="1.84681">
        <ele>1492.58</ele>
        <time>2017-04-29T07:12:03Z</time>
      </trkpt>
      <trkpt lat="42.77368" lon="1.84671">
        <ele>1492.58</ele>
        <time>2017-04-29T07:12:19Z</time>
      </trkpt>
      <trkpt lat="42.77371" lon="1.84659">
        <ele>1492.58</ele>
        <time>2017-04-29T07:12:30Z</time>
      </trkpt>
      <trkpt lat="42.77373" lon="1.84647">
        <ele>1492.1</ele>
        <time>2017-04-29T07:12:41Z</time>
      </trkpt>
      <trkpt lat="42.77373" lon="1.84636">
        <ele>1491.62</ele>
        <time>2017-04-29T07:13:06Z</time>
      </trkpt>
      <trkpt lat="42.77372" lon="1.84622">
        <ele>1491.62</ele>
        <time>2017-04-29T07:13:20Z</time>
      </trkpt>
      <trkpt lat="42.77375" lon="1.8461">
        <ele>1491.62</ele>
        <time>2017-04-29T07:13:31Z</time>
      </trkpt>
      <trkpt lat="42.77378" lon="1.84598">
        <ele>1491.62</ele>
        <time>2017-04-29T07:13:43Z</time>
      </trkpt>
      <trkpt lat="42.7738" lon="1.84586">
        <ele>1492.1</ele>
        <time>2017-04-29T07:13:55Z</time>
      </trkpt>
      <trkpt lat="42.77382" lon="1.84573">
        <ele>1492.58</ele>
        <time>2017-04-29T07:14:08Z</time>
      </trkpt>
      <trkpt lat="42.77383" lon="1.84559">
        <ele>1493.55</ele>
        <time>2017-04-29T07:14:26Z</time>
      </trkpt>
      <trkpt lat="42.77383" lon="1.84552">
        <ele>1493.06</ele>
        <time>2017-04-29T07:14:48Z</time>
      </trkpt>
      <trkpt lat="42.77383" lon="1.84538">
        <ele>1493.06</ele>
        <time>2017-04-29T07:15:10Z</time>
      </trkpt>
      <trkpt lat="42.77385" lon="1.84525">
        <ele>1492.58</ele>
        <time>2017-04-29T07:15:22Z</time>
      </trkpt>
      <trkpt lat="42.77382" lon="1.84511">
        <ele>1491.62</ele>
        <time>2017-04-29T07:15:35Z</time>
      </trkpt>
      <trkpt lat="42.77379" lon="1.84497">
        <ele>1491.62</ele>
        <time>2017-04-29T07:15:50Z</time>
      </trkpt>
      <trkpt lat="42.77379" lon="1.84485">
        <ele>1491.62</ele>
        <time>2017-04-29T07:16:37Z</time>
      </trkpt>
      <trkpt lat="42.77381" lon="1.84473">
        <ele>1493.06</ele>
        <time>2017-04-29T07:16:52Z</time>
      </trkpt>
      <trkpt lat="42.77381" lon="1.84459">
        <ele>1494.99</ele>
        <time>2017-04-29T07:17:09Z</time>
      </trkpt>
      <trkpt lat="42.77385" lon="1.84446">
        <ele>1496.43</ele>
        <time>2017-04-29T07:17:23Z</time>
      </trkpt>
      <trkpt lat="42.77391" lon="1.84436">
        <ele>1497.87</ele>
        <time>2017-04-29T07:17:37Z</time>
      </trkpt>
      <trkpt lat="42.77394" lon="1.84423">
        <ele>1499.79</ele>
        <time>2017-04-29T07:17:51Z</time>
      </trkpt>
      <trkpt lat="42.77407" lon="1.84411">
        <ele>1500.76</ele>
        <time>2017-04-29T07:18:31Z</time>
      </trkpt>
      <trkpt lat="42.77423" lon="1.84401">
        <ele>1501.24</ele>
        <time>2017-04-29T07:18:48Z</time>
      </trkpt>
      <trkpt lat="42.77433" lon="1.84389">
        <ele>1500.76</ele>
        <time>2017-04-29T07:19:08Z</time>
      </trkpt>
      <trkpt lat="42.77447" lon="1.84381">
        <ele>1501.72</ele>
        <time>2017-04-29T07:19:22Z</time>
      </trkpt>
      <trkpt lat="42.77456" lon="1.84375">
        <ele>1501.72</ele>
        <time>2017-04-29T07:19:34Z</time>
      </trkpt>
      <trkpt lat="42.77466" lon="1.8437">
        <ele>1501.72</ele>
        <time>2017-04-29T07:19:45Z</time>
      </trkpt>
      <trkpt lat="42.77477" lon="1.84369">
        <ele>1502.68</ele>
        <time>2017-04-29T07:19:55Z</time>
      </trkpt>
      <trkpt lat="42.77483" lon="1.84361">
        <ele>1504.6</ele>
        <time>2017-04-29T07:20:09Z</time>
      </trkpt>
      <trkpt lat="42.77489" lon="1.84354">
        <ele>1507</ele>
        <time>2017-04-29T07:20:25Z</time>
      </trkpt>
      <trkpt lat="42.77498" lon="1.84345">
        <ele>1509.89</ele>
        <time>2017-04-29T07:20:45Z</time>
      </trkpt>
      <trkpt lat="42.77505" lon="1.84338">
        <ele>1512.77</ele>
        <time>2017-04-29T07:21:01Z</time>
      </trkpt>
      <trkpt lat="42.77512" lon="1.84331">
        <ele>1515.66</ele>
        <time>2017-04-29T07:21:19Z</time>
      </trkpt>
      <trkpt lat="42.7752" lon="1.84322">
        <ele>1517.58</ele>
        <time>2017-04-29T07:21:35Z</time>
      </trkpt>
      <trkpt lat="42.77528" lon="1.84317">
        <ele>1519.5</ele>
        <time>2017-04-29T07:21:47Z</time>
      </trkpt>
      <trkpt lat="42.77536" lon="1.84311">
        <ele>1522.39</ele>
        <time>2017-04-29T07:22:05Z</time>
      </trkpt>
      <trkpt lat="42.77543" lon="1.84305">
        <ele>1523.83</ele>
        <time>2017-04-29T07:22:20Z</time>
      </trkpt>
      <trkpt lat="42.77551" lon="1.84299">
        <ele>1526.23</ele>
        <time>2017-04-29T07:22:39Z</time>
      </trkpt>
      <trkpt lat="42.77558" lon="1.84292">
        <ele>1528.63</ele>
        <time>2017-04-29T07:22:57Z</time>
      </trkpt>
      <trkpt lat="42.77563" lon="1.84283">
        <ele>1531.04</ele>
        <time>2017-04-29T07:23:16Z</time>
      </trkpt>
      <trkpt lat="42.77567" lon="1.84273">
        <ele>1534.4</ele>
        <time>2017-04-29T07:23:37Z</time>
      </trkpt>
      <trkpt lat="42.77574" lon="1.84264">
        <ele>1536.8</ele>
        <time>2017-04-29T07:23:57Z</time>
      </trkpt>
      <trkpt lat="42.77582" lon="1.84257">
        <ele>1540.17</ele>
        <time>2017-04-29T07:24:17Z</time>
      </trkpt>
      <trkpt lat="42.7759" lon="1.84249">
        <ele>1543.05</ele>
        <time>2017-04-29T07:24:39Z</time>
      </trkpt>
      <trkpt lat="42.77597" lon="1.84242">
        <ele>1546.9</ele>
        <time>2017-04-29T07:25:04Z</time>
      </trkpt>
      <trkpt lat="42.77599" lon="1.84229">
        <ele>1549.78</ele>
        <time>2017-04-29T07:25:24Z</time>
      </trkpt>
      <trkpt lat="42.77603" lon="1.84218">
        <ele>1553.15</ele>
        <time>2017-04-29T07:25:44Z</time>
      </trkpt>
      <trkpt lat="42.77608" lon="1.84211">
        <ele>1556.03</ele>
        <time>2017-04-29T07:26:07Z</time>
      </trkpt>
      <trkpt lat="42.77614" lon="1.84204">
        <ele>1559.4</ele>
        <time>2017-04-29T07:26:32Z</time>
      </trkpt>
      <trkpt lat="42.77616" lon="1.84193">
        <ele>1561.8</ele>
        <time>2017-04-29T07:26:53Z</time>
      </trkpt>
      <trkpt lat="42.77619" lon="1.8418">
        <ele>1564.2</ele>
        <time>2017-04-29T07:27:16Z</time>
      </trkpt>
      <trkpt lat="42.77622" lon="1.84168">
        <ele>1565.16</ele>
        <time>2017-04-29T07:27:36Z</time>
      </trkpt>
      <trkpt lat="42.77625" lon="1.84156">
        <ele>1566.61</ele>
        <time>2017-04-29T07:27:58Z</time>
      </trkpt>
      <trkpt lat="42.77629" lon="1.84144">
        <ele>1568.53</ele>
        <time>2017-04-29T07:28:15Z</time>
      </trkpt>
      <trkpt lat="42.77636" lon="1.84142">
        <ele>1569.49</ele>
        <time>2017-04-29T07:29:07Z</time>
      </trkpt>
      <trkpt lat="42.77641" lon="1.84134">
        <ele>1569.97</ele>
        <time>2017-04-29T07:29:20Z</time>
      </trkpt>
      <trkpt lat="42.77646" lon="1.84125">
        <ele>1572.85</ele>
        <time>2017-04-29T07:29:48Z</time>
      </trkpt>
      <trkpt lat="42.77656" lon="1.84118">
        <ele>1573.82</ele>
        <time>2017-04-29T07:30:12Z</time>
      </trkpt>
      <trkpt lat="42.77661" lon="1.84124">
        <ele>1574.78</ele>
        <time>2017-04-29T07:30:30Z</time>
      </trkpt>
      <trkpt lat="42.77671" lon="1.84128">
        <ele>1576.7</ele>
        <time>2017-04-29T07:30:50Z</time>
      </trkpt>
      <trkpt lat="42.77679" lon="1.84126">
        <ele>1578.14</ele>
        <time>2017-04-29T07:31:09Z</time>
      </trkpt>
      <trkpt lat="42.77686" lon="1.84122">
        <ele>1580.06</ele>
        <time>2017-04-29T07:31:30Z</time>
      </trkpt>
      <trkpt lat="42.77689" lon="1.84111">
        <ele>1581.51</ele>
        <time>2017-04-29T07:31:52Z</time>
      </trkpt>
      <trkpt lat="42.77687" lon="1.84098">
        <ele>1584.39</ele>
        <time>2017-04-29T07:32:13Z</time>
      </trkpt>
      <trkpt lat="42.77684" lon="1.84087">
        <ele>1586.31</ele>
        <time>2017-04-29T07:32:35Z</time>
      </trkpt>
      <trkpt lat="42.77685" lon="1.84087">
        <ele>1585.35</ele>
        <time>2017-04-29T07:35:27Z</time>
      </trkpt>
      <trkpt lat="42.77694" lon="1.84084">
        <ele>1586.31</ele>
        <time>2017-04-29T07:37:20Z</time>
      </trkpt>
      <trkpt lat="42.77696" lon="1.84079">
        <ele>1586.79</ele>
        <time>2017-04-29T07:40:18Z</time>
      </trkpt>
      <trkpt lat="42.77707" lon="1.84072">
        <ele>1587.27</ele>
        <time>2017-04-29T07:40:32Z</time>
      </trkpt>
      <trkpt lat="42.77715" lon="1.84064">
        <ele>1587.75</ele>
        <time>2017-04-29T07:40:48Z</time>
      </trkpt>
      <trkpt lat="42.77718" lon="1.84051">
        <ele>1590.16</ele>
        <time>2017-04-29T07:41:06Z</time>
      </trkpt>
      <trkpt lat="42.77721" lon="1.84041">
        <ele>1591.6</ele>
        <time>2017-04-29T07:41:20Z</time>
      </trkpt>
      <trkpt lat="42.7773" lon="1.84034">
        <ele>1594</ele>
        <time>2017-04-29T07:42:48Z</time>
      </trkpt>
      <trkpt lat="42.77735" lon="1.84029">
        <ele>1596.41</ele>
        <time>2017-04-29T07:43:12Z</time>
      </trkpt>
      <trkpt lat="42.77747" lon="1.84029">
        <ele>1599.77</ele>
        <time>2017-04-29T07:43:56Z</time>
      </trkpt>
      <trkpt lat="42.77757" lon="1.8403">
        <ele>1603.14</ele>
        <time>2017-04-29T07:44:26Z</time>
      </trkpt>
      <trkpt lat="42.77767" lon="1.84034">
        <ele>1606.02</ele>
        <time>2017-04-29T07:44:48Z</time>
      </trkpt>
      <trkpt lat="42.77776" lon="1.84036">
        <ele>1607.94</ele>
        <time>2017-04-29T07:45:09Z</time>
      </trkpt>
      <trkpt lat="42.77784" lon="1.84042">
        <ele>1610.35</ele>
        <time>2017-04-29T07:45:30Z</time>
      </trkpt>
      <trkpt lat="42.77793" lon="1.84045">
        <ele>1613.71</ele>
        <time>2017-04-29T07:45:57Z</time>
      </trkpt>
      <trkpt lat="42.77803" lon="1.84045">
        <ele>1615.63</ele>
        <time>2017-04-29T07:46:15Z</time>
      </trkpt>
      <trkpt lat="42.77813" lon="1.84047">
        <ele>1616.11</ele>
        <time>2017-04-29T07:46:32Z</time>
      </trkpt>
      <trkpt lat="42.77821" lon="1.84052">
        <ele>1617.56</ele>
        <time>2017-04-29T07:46:52Z</time>
      </trkpt>
      <trkpt lat="42.77829" lon="1.84057">
        <ele>1618.52</ele>
        <time>2017-04-29T07:47:11Z</time>
      </trkpt>
      <trkpt lat="42.77837" lon="1.84063">
        <ele>1619.48</ele>
        <time>2017-04-29T07:47:28Z</time>
      </trkpt>
      <trkpt lat="42.77844" lon="1.8406">
        <ele>1620.44</ele>
        <time>2017-04-29T07:48:10Z</time>
      </trkpt>
      <trkpt lat="42.77851" lon="1.84055">
        <ele>1622.36</ele>
        <time>2017-04-29T07:48:26Z</time>
      </trkpt>
      <trkpt lat="42.7786" lon="1.84046">
        <ele>1623.32</ele>
        <time>2017-04-29T07:48:44Z</time>
      </trkpt>
      <trkpt lat="42.77867" lon="1.84039">
        <ele>1626.69</ele>
        <time>2017-04-29T07:49:06Z</time>
      </trkpt>
      <trkpt lat="42.77874" lon="1.84032">
        <ele>1629.57</ele>
        <time>2017-04-29T07:49:27Z</time>
      </trkpt>
      <trkpt lat="42.77882" lon="1.84027">
        <ele>1632.94</ele>
        <time>2017-04-29T07:49:50Z</time>
      </trkpt>
      <trkpt lat="42.77891" lon="1.84021">
        <ele>1638.22</ele>
        <time>2017-04-29T07:50:22Z</time>
      </trkpt>
      <trkpt lat="42.77893" lon="1.84011">
        <ele>1641.11</ele>
        <time>2017-04-29T07:50:45Z</time>
      </trkpt>
      <trkpt lat="42.77897" lon="1.84002">
        <ele>1643.51</ele>
        <time>2017-04-29T07:51:07Z</time>
      </trkpt>
      <trkpt lat="42.77909" lon="1.84007">
        <ele>1646.88</ele>
        <time>2017-04-29T07:51:43Z</time>
      </trkpt>
      <trkpt lat="42.77914" lon="1.84">
        <ele>1649.76</ele>
        <time>2017-04-29T07:52:07Z</time>
      </trkpt>
      <trkpt lat="42.7792" lon="1.83991">
        <ele>1653.12</ele>
        <time>2017-04-29T07:52:29Z</time>
      </trkpt>
      <trkpt lat="42.77929" lon="1.83986">
        <ele>1655.05</ele>
        <time>2017-04-29T07:52:49Z</time>
      </trkpt>
      <trkpt lat="42.7794" lon="1.83987">
        <ele>1656.49</ele>
        <time>2017-04-29T07:53:08Z</time>
      </trkpt>
      <trkpt lat="42.77946" lon="1.83978">
        <ele>1658.41</ele>
        <time>2017-04-29T07:53:27Z</time>
      </trkpt>
      <trkpt lat="42.77954" lon="1.8397">
        <ele>1660.33</ele>
        <time>2017-04-29T07:53:49Z</time>
      </trkpt>
      <trkpt lat="42.77963" lon="1.83974">
        <ele>1663.7</ele>
        <time>2017-04-29T07:54:17Z</time>
      </trkpt>
      <trkpt lat="42.77973" lon="1.83978">
        <ele>1667.06</ele>
        <time>2017-04-29T07:54:38Z</time>
      </trkpt>
      <trkpt lat="42.77982" lon="1.83982">
        <ele>1668.99</ele>
        <time>2017-04-29T07:54:57Z</time>
      </trkpt>
      <trkpt lat="42.7799" lon="1.83986">
        <ele>1671.87</ele>
        <time>2017-04-29T07:55:15Z</time>
      </trkpt>
      <trkpt lat="42.77995" lon="1.83992">
        <ele>1673.31</ele>
        <time>2017-04-29T07:55:58Z</time>
      </trkpt>
      <trkpt lat="42.78003" lon="1.83992">
        <ele>1675.72</ele>
        <time>2017-04-29T07:56:15Z</time>
      </trkpt>
      <trkpt lat="42.78014" lon="1.83992">
        <ele>1678.6</ele>
        <time>2017-04-29T07:56:37Z</time>
      </trkpt>
      <trkpt lat="42.78022" lon="1.83993">
        <ele>1681</ele>
        <time>2017-04-29T07:56:55Z</time>
      </trkpt>
      <trkpt lat="42.7803" lon="1.83995">
        <ele>1682.93</ele>
        <time>2017-04-29T07:57:16Z</time>
      </trkpt>
      <trkpt lat="42.78037" lon="1.83992">
        <ele>1684.37</ele>
        <time>2017-04-29T07:57:36Z</time>
      </trkpt>
      <trkpt lat="42.78046" lon="1.83993">
        <ele>1687.25</ele>
        <time>2017-04-29T07:57:58Z</time>
      </trkpt>
      <trkpt lat="42.78055" lon="1.83991">
        <ele>1688.69</ele>
        <time>2017-04-29T07:58:19Z</time>
      </trkpt>
      <trkpt lat="42.7806" lon="1.83983">
        <ele>1690.14</ele>
        <time>2017-04-29T07:58:35Z</time>
      </trkpt>
      <trkpt lat="42.78067" lon="1.83977">
        <ele>1693.02</ele>
        <time>2017-04-29T07:59:33Z</time>
      </trkpt>
      <trkpt lat="42.78074" lon="1.83972">
        <ele>1696.86</ele>
        <time>2017-04-29T08:00:40Z</time>
      </trkpt>
      <trkpt lat="42.78081" lon="1.83966">
        <ele>1699.27</ele>
        <time>2017-04-29T08:01:38Z</time>
      </trkpt>
      <trkpt lat="42.78092" lon="1.83969">
        <ele>1701.67</ele>
        <time>2017-04-29T08:02:44Z</time>
      </trkpt>
      <trkpt lat="42.78104" lon="1.83975">
        <ele>1702.63</ele>
        <time>2017-04-29T08:03:09Z</time>
      </trkpt>
      <trkpt lat="42.78106" lon="1.83969">
        <ele>1707.44</ele>
        <time>2017-04-29T08:32:49Z</time>
      </trkpt>
      <trkpt lat="42.78107" lon="1.83955">
        <ele>1709.36</ele>
        <time>2017-04-29T08:33:12Z</time>
      </trkpt>
      <trkpt lat="42.78105" lon="1.83945">
        <ele>1711.76</ele>
        <time>2017-04-29T08:33:33Z</time>
      </trkpt>
      <trkpt lat="42.78109" lon="1.83937">
        <ele>1714.17</ele>
        <time>2017-04-29T08:33:54Z</time>
      </trkpt>
      <trkpt lat="42.78118" lon="1.83929">
        <ele>1716.57</ele>
        <time>2017-04-29T08:34:15Z</time>
      </trkpt>
      <trkpt lat="42.78123" lon="1.83923">
        <ele>1718.97</ele>
        <time>2017-04-29T08:34:32Z</time>
      </trkpt>
      <trkpt lat="42.78131" lon="1.83916">
        <ele>1720.9</ele>
        <time>2017-04-29T08:34:49Z</time>
      </trkpt>
      <trkpt lat="42.78138" lon="1.83911">
        <ele>1721.86</ele>
        <time>2017-04-29T08:35:06Z</time>
      </trkpt>
      <trkpt lat="42.78147" lon="1.83908">
        <ele>1724.26</ele>
        <time>2017-04-29T08:35:25Z</time>
      </trkpt>
      <trkpt lat="42.78152" lon="1.83896">
        <ele>1726.67</ele>
        <time>2017-04-29T08:35:48Z</time>
      </trkpt>
      <trkpt lat="42.78157" lon="1.83885">
        <ele>1729.55</ele>
        <time>2017-04-29T08:36:11Z</time>
      </trkpt>
      <trkpt lat="42.78162" lon="1.83874">
        <ele>1731.95</ele>
        <time>2017-04-29T08:36:32Z</time>
      </trkpt>
      <trkpt lat="42.7817" lon="1.83867">
        <ele>1735.32</ele>
        <time>2017-04-29T08:36:54Z</time>
      </trkpt>
      <trkpt lat="42.7818" lon="1.83861">
        <ele>1737.72</ele>
        <time>2017-04-29T08:37:15Z</time>
      </trkpt>
      <trkpt lat="42.78187" lon="1.83854">
        <ele>1741.08</ele>
        <time>2017-04-29T08:37:36Z</time>
      </trkpt>
      <trkpt lat="42.78193" lon="1.83846">
        <ele>1743.49</ele>
        <time>2017-04-29T08:37:55Z</time>
      </trkpt>
      <trkpt lat="42.782" lon="1.83838">
        <ele>1746.85</ele>
        <time>2017-04-29T08:38:16Z</time>
      </trkpt>
      <trkpt lat="42.78205" lon="1.8383">
        <ele>1748.78</ele>
        <time>2017-04-29T08:38:37Z</time>
      </trkpt>
      <trkpt lat="42.78212" lon="1.8382">
        <ele>1751.18</ele>
        <time>2017-04-29T08:38:59Z</time>
      </trkpt>
      <trkpt lat="42.78219" lon="1.83814">
        <ele>1754.54</ele>
        <time>2017-04-29T08:39:18Z</time>
      </trkpt>
      <trkpt lat="42.78225" lon="1.83805">
        <ele>1755.99</ele>
        <time>2017-04-29T08:39:38Z</time>
      </trkpt>
      <trkpt lat="42.78231" lon="1.83796">
        <ele>1758.39</ele>
        <time>2017-04-29T08:39:57Z</time>
      </trkpt>
      <trkpt lat="42.78239" lon="1.838">
        <ele>1761.27</ele>
        <time>2017-04-29T08:40:15Z</time>
      </trkpt>
      <trkpt lat="42.78249" lon="1.83805">
        <ele>1763.68</ele>
        <time>2017-04-29T08:40:34Z</time>
      </trkpt>
      <trkpt lat="42.78259" lon="1.83805">
        <ele>1766.56</ele>
        <time>2017-04-29T08:41:00Z</time>
      </trkpt>
      <trkpt lat="42.78269" lon="1.838">
        <ele>1768.48</ele>
        <time>2017-04-29T08:41:18Z</time>
      </trkpt>
      <trkpt lat="42.78279" lon="1.83801">
        <ele>1771.37</ele>
        <time>2017-04-29T08:41:38Z</time>
      </trkpt>
      <trkpt lat="42.78286" lon="1.83798">
        <ele>1772.33</ele>
        <time>2017-04-29T08:41:56Z</time>
      </trkpt>
      <trkpt lat="42.78297" lon="1.83796">
        <ele>1774.73</ele>
        <time>2017-04-29T08:42:12Z</time>
      </trkpt>
      <trkpt lat="42.78305" lon="1.83796">
        <ele>1776.17</ele>
        <time>2017-04-29T08:42:26Z</time>
      </trkpt>
      <trkpt lat="42.78314" lon="1.83794">
        <ele>1777.61</ele>
        <time>2017-04-29T08:42:42Z</time>
      </trkpt>
      <trkpt lat="42.78323" lon="1.83793">
        <ele>1780.02</ele>
        <time>2017-04-29T08:43:00Z</time>
      </trkpt>
      <trkpt lat="42.78331" lon="1.83795">
        <ele>1781.46</ele>
        <time>2017-04-29T08:43:17Z</time>
      </trkpt>
      <trkpt lat="42.7834" lon="1.83798">
        <ele>1783.38</ele>
        <time>2017-04-29T08:43:34Z</time>
      </trkpt>
      <trkpt lat="42.78349" lon="1.83799">
        <ele>1785.79</ele>
        <time>2017-04-29T08:43:53Z</time>
      </trkpt>
      <trkpt lat="42.78358" lon="1.83802">
        <ele>1786.75</ele>
        <time>2017-04-29T08:45:15Z</time>
      </trkpt>
      <trkpt lat="42.78368" lon="1.83803">
        <ele>1787.71</ele>
        <time>2017-04-29T08:45:26Z</time>
      </trkpt>
      <trkpt lat="42.78378" lon="1.83801">
        <ele>1787.71</ele>
        <time>2017-04-29T08:45:38Z</time>
      </trkpt>
      <trkpt lat="42.78387" lon="1.83805">
        <ele>1789.15</ele>
        <time>2017-04-29T08:45:50Z</time>
      </trkpt>
      <trkpt lat="42.78398" lon="1.83806">
        <ele>1790.59</ele>
        <time>2017-04-29T08:46:03Z</time>
      </trkpt>
      <trkpt lat="42.78407" lon="1.83802">
        <ele>1791.55</ele>
        <time>2017-04-29T08:46:17Z</time>
      </trkpt>
      <trkpt lat="42.78417" lon="1.838">
        <ele>1793</ele>
        <time>2017-04-29T08:46:34Z</time>
      </trkpt>
      <trkpt lat="42.78427" lon="1.83797">
        <ele>1794.92</ele>
        <time>2017-04-29T08:46:48Z</time>
      </trkpt>
      <trkpt lat="42.78436" lon="1.83797">
        <ele>1795.88</ele>
        <time>2017-04-29T08:47:03Z</time>
      </trkpt>
      <trkpt lat="42.78446" lon="1.83797">
        <ele>1797.8</ele>
        <time>2017-04-29T08:47:18Z</time>
      </trkpt>
      <trkpt lat="42.78453" lon="1.83795">
        <ele>1798.76</ele>
        <time>2017-04-29T08:47:49Z</time>
      </trkpt>
      <trkpt lat="42.78463" lon="1.83796">
        <ele>1801.17</ele>
        <time>2017-04-29T08:48:04Z</time>
      </trkpt>
      <trkpt lat="42.78471" lon="1.83796">
        <ele>1802.61</ele>
        <time>2017-04-29T08:48:17Z</time>
      </trkpt>
      <trkpt lat="42.7848" lon="1.83797">
        <ele>1804.53</ele>
        <time>2017-04-29T08:48:32Z</time>
      </trkpt>
      <trkpt lat="42.78488" lon="1.83796">
        <ele>1806.94</ele>
        <time>2017-04-29T08:48:47Z</time>
      </trkpt>
      <trkpt lat="42.78498" lon="1.83799">
        <ele>1809.34</ele>
        <time>2017-04-29T08:49:06Z</time>
      </trkpt>
      <trkpt lat="42.78506" lon="1.83795">
        <ele>1810.78</ele>
        <time>2017-04-29T08:49:20Z</time>
      </trkpt>
      <trkpt lat="42.78514" lon="1.83794">
        <ele>1813.18</ele>
        <time>2017-04-29T08:49:39Z</time>
      </trkpt>
      <trkpt lat="42.78525" lon="1.83796">
        <ele>1815.59</ele>
        <time>2017-04-29T08:49:57Z</time>
      </trkpt>
      <trkpt lat="42.78533" lon="1.838">
        <ele>1817.51</ele>
        <time>2017-04-29T08:50:14Z</time>
      </trkpt>
      <trkpt lat="42.78542" lon="1.83801">
        <ele>1819.43</ele>
        <time>2017-04-29T08:50:29Z</time>
      </trkpt>
      <trkpt lat="42.7855" lon="1.83803">
        <ele>1820.87</ele>
        <time>2017-04-29T08:50:43Z</time>
      </trkpt>
      <trkpt lat="42.78559" lon="1.83807">
        <ele>1822.8</ele>
        <time>2017-04-29T08:50:58Z</time>
      </trkpt>
      <trkpt lat="42.78567" lon="1.83809">
        <ele>1825.2</ele>
        <time>2017-04-29T08:51:13Z</time>
      </trkpt>
      <trkpt lat="42.78575" lon="1.83813">
        <ele>1826.64</ele>
        <time>2017-04-29T08:51:29Z</time>
      </trkpt>
      <trkpt lat="42.78584" lon="1.83814">
        <ele>1829.05</ele>
        <time>2017-04-29T08:51:50Z</time>
      </trkpt>
      <trkpt lat="42.78592" lon="1.83811">
        <ele>1831.45</ele>
        <time>2017-04-29T08:52:10Z</time>
      </trkpt>
      <trkpt lat="42.786" lon="1.83814">
        <ele>1832.89</ele>
        <time>2017-04-29T08:52:29Z</time>
      </trkpt>
      <trkpt lat="42.78609" lon="1.83815">
        <ele>1834.33</ele>
        <time>2017-04-29T08:52:42Z</time>
      </trkpt>
      <trkpt lat="42.78619" lon="1.83815">
        <ele>1835.77</ele>
        <time>2017-04-29T08:52:58Z</time>
      </trkpt>
      <trkpt lat="42.78628" lon="1.83817">
        <ele>1837.22</ele>
        <time>2017-04-29T08:53:12Z</time>
      </trkpt>
      <trkpt lat="42.78638" lon="1.83816">
        <ele>1838.18</ele>
        <time>2017-04-29T08:53:26Z</time>
      </trkpt>
      <trkpt lat="42.78647" lon="1.83813">
        <ele>1838.66</ele>
        <time>2017-04-29T08:53:39Z</time>
      </trkpt>
      <trkpt lat="42.78655" lon="1.83808">
        <ele>1839.62</ele>
        <time>2017-04-29T08:53:51Z</time>
      </trkpt>
      <trkpt lat="42.78664" lon="1.83805">
        <ele>1839.62</ele>
        <time>2017-04-29T08:54:03Z</time>
      </trkpt>
      <trkpt lat="42.78674" lon="1.83804">
        <ele>1840.1</ele>
        <time>2017-04-29T08:54:35Z</time>
      </trkpt>
      <trkpt lat="42.78683" lon="1.83804">
        <ele>1840.58</ele>
        <time>2017-04-29T08:54:46Z</time>
      </trkpt>
      <trkpt lat="42.78692" lon="1.83802">
        <ele>1841.06</ele>
        <time>2017-04-29T08:54:58Z</time>
      </trkpt>
      <trkpt lat="42.787" lon="1.83801">
        <ele>1841.54</ele>
        <time>2017-04-29T08:55:09Z</time>
      </trkpt>
      <trkpt lat="42.78708" lon="1.83797">
        <ele>1842.98</ele>
        <time>2017-04-29T08:55:22Z</time>
      </trkpt>
      <trkpt lat="42.78717" lon="1.83792">
        <ele>1844.43</ele>
        <time>2017-04-29T08:55:35Z</time>
      </trkpt>
      <trkpt lat="42.78725" lon="1.83787">
        <ele>1844.43</ele>
        <time>2017-04-29T08:55:49Z</time>
      </trkpt>
      <trkpt lat="42.78733" lon="1.83779">
        <ele>1845.39</ele>
        <time>2017-04-29T08:56:05Z</time>
      </trkpt>
      <trkpt lat="42.78743" lon="1.83774">
        <ele>1846.35</ele>
        <time>2017-04-29T08:56:20Z</time>
      </trkpt>
      <trkpt lat="42.78751" lon="1.83766">
        <ele>1847.79</ele>
        <time>2017-04-29T08:56:36Z</time>
      </trkpt>
      <trkpt lat="42.78759" lon="1.83761">
        <ele>1848.75</ele>
        <time>2017-04-29T08:56:50Z</time>
      </trkpt>
      <trkpt lat="42.78768" lon="1.83756">
        <ele>1849.71</ele>
        <time>2017-04-29T08:57:04Z</time>
      </trkpt>
      <trkpt lat="42.78776" lon="1.83749">
        <ele>1850.68</ele>
        <time>2017-04-29T08:57:17Z</time>
      </trkpt>
      <trkpt lat="42.78785" lon="1.83744">
        <ele>1852.12</ele>
        <time>2017-04-29T08:57:31Z</time>
      </trkpt>
      <trkpt lat="42.78794" lon="1.83739">
        <ele>1854.04</ele>
        <time>2017-04-29T08:57:45Z</time>
      </trkpt>
      <trkpt lat="42.78803" lon="1.83735">
        <ele>1855</ele>
        <time>2017-04-29T08:57:59Z</time>
      </trkpt>
      <trkpt lat="42.78809" lon="1.83727">
        <ele>1856.92</ele>
        <time>2017-04-29T08:58:13Z</time>
      </trkpt>
      <trkpt lat="42.78816" lon="1.83718">
        <ele>1858.85</ele>
        <time>2017-04-29T08:58:29Z</time>
      </trkpt>
      <trkpt lat="42.78821" lon="1.8371">
        <ele>1859.81</ele>
        <time>2017-04-29T08:58:43Z</time>
      </trkpt>
      <trkpt lat="42.78827" lon="1.83698">
        <ele>1861.73</ele>
        <time>2017-04-29T08:58:59Z</time>
      </trkpt>
      <trkpt lat="42.78831" lon="1.83688">
        <ele>1862.69</ele>
        <time>2017-04-29T08:59:15Z</time>
      </trkpt>
      <trkpt lat="42.78836" lon="1.83684">
        <ele>1863.17</ele>
        <time>2017-04-29T09:00:08Z</time>
      </trkpt>
      <trkpt lat="42.78836" lon="1.83675">
        <ele>1863.17</ele>
        <time>2017-04-29T09:02:14Z</time>
      </trkpt>
      <trkpt lat="42.7884" lon="1.8367">
        <ele>1861.73</ele>
        <time>2017-04-29T09:02:30Z</time>
      </trkpt>
      <trkpt lat="42.78844" lon="1.83662">
        <ele>1858.85</ele>
        <time>2017-04-29T09:02:48Z</time>
      </trkpt>
      <trkpt lat="42.78843" lon="1.8365">
        <ele>1855.96</ele>
        <time>2017-04-29T09:03:03Z</time>
      </trkpt>
      <trkpt lat="42.78852" lon="1.83644">
        <ele>1854.52</ele>
        <time>2017-04-29T09:03:15Z</time>
      </trkpt>
      <trkpt lat="42.78861" lon="1.83638">
        <ele>1852.6</ele>
        <time>2017-04-29T09:03:26Z</time>
      </trkpt>
      <trkpt lat="42.78869" lon="1.83629">
        <ele>1850.68</ele>
        <time>2017-04-29T09:03:38Z</time>
      </trkpt>
      <trkpt lat="42.78872" lon="1.83619">
        <ele>1847.79</ele>
        <time>2017-04-29T09:03:56Z</time>
      </trkpt>
      <trkpt lat="42.7888" lon="1.83615">
        <ele>1845.87</ele>
        <time>2017-04-29T09:04:09Z</time>
      </trkpt>
      <trkpt lat="42.78889" lon="1.83612">
        <ele>1843.95</ele>
        <time>2017-04-29T09:04:19Z</time>
      </trkpt>
      <trkpt lat="42.78896" lon="1.83604">
        <ele>1842.5</ele>
        <time>2017-04-29T09:04:30Z</time>
      </trkpt>
      <trkpt lat="42.78905" lon="1.83597">
        <ele>1841.54</ele>
        <time>2017-04-29T09:04:40Z</time>
      </trkpt>
      <trkpt lat="42.78911" lon="1.83588">
        <ele>1841.06</ele>
        <time>2017-04-29T09:04:51Z</time>
      </trkpt>
      <trkpt lat="42.78916" lon="1.83579">
        <ele>1840.58</ele>
        <time>2017-04-29T09:05:00Z</time>
      </trkpt>
      <trkpt lat="42.78922" lon="1.8357">
        <ele>1839.14</ele>
        <time>2017-04-29T09:05:10Z</time>
      </trkpt>
      <trkpt lat="42.78929" lon="1.83561">
        <ele>1838.66</ele>
        <time>2017-04-29T09:05:21Z</time>
      </trkpt>
      <trkpt lat="42.78936" lon="1.83553">
        <ele>1837.7</ele>
        <time>2017-04-29T09:05:32Z</time>
      </trkpt>
      <trkpt lat="42.78942" lon="1.83542">
        <ele>1836.26</ele>
        <time>2017-04-29T09:05:42Z</time>
      </trkpt>
      <trkpt lat="42.78949" lon="1.83535">
        <ele>1835.29</ele>
        <time>2017-04-29T09:05:53Z</time>
      </trkpt>
      <trkpt lat="42.78954" lon="1.83525">
        <ele>1834.81</ele>
        <time>2017-04-29T09:06:04Z</time>
      </trkpt>
      <trkpt lat="42.78962" lon="1.83516">
        <ele>1834.33</ele>
        <time>2017-04-29T09:06:15Z</time>
      </trkpt>
      <trkpt lat="42.78968" lon="1.83506">
        <ele>1833.85</ele>
        <time>2017-04-29T09:06:26Z</time>
      </trkpt>
      <trkpt lat="42.78975" lon="1.83498">
        <ele>1835.29</ele>
        <time>2017-04-29T09:06:38Z</time>
      </trkpt>
      <trkpt lat="42.78982" lon="1.83489">
        <ele>1835.77</ele>
        <time>2017-04-29T09:06:50Z</time>
      </trkpt>
      <trkpt lat="42.78988" lon="1.83479">
        <ele>1837.22</ele>
        <time>2017-04-29T09:07:02Z</time>
      </trkpt>
      <trkpt lat="42.7899" lon="1.83467">
        <ele>1838.66</ele>
        <time>2017-04-29T09:07:14Z</time>
      </trkpt>
      <trkpt lat="42.78995" lon="1.83456">
        <ele>1839.14</ele>
        <time>2017-04-29T09:07:27Z</time>
      </trkpt>
      <trkpt lat="42.79003" lon="1.83452">
        <ele>1839.62</ele>
        <time>2017-04-29T09:07:40Z</time>
      </trkpt>
      <trkpt lat="42.79012" lon="1.83447">
        <ele>1839.62</ele>
        <time>2017-04-29T09:08:07Z</time>
      </trkpt>
      <trkpt lat="42.79019" lon="1.83442">
        <ele>1840.58</ele>
        <time>2017-04-29T09:08:17Z</time>
      </trkpt>
      <trkpt lat="42.79028" lon="1.83436">
        <ele>1840.58</ele>
        <time>2017-04-29T09:08:28Z</time>
      </trkpt>
      <trkpt lat="42.79036" lon="1.83429">
        <ele>1840.1</ele>
        <time>2017-04-29T09:08:40Z</time>
      </trkpt>
      <trkpt lat="42.79044" lon="1.83423">
        <ele>1838.66</ele>
        <time>2017-04-29T09:08:51Z</time>
      </trkpt>
      <trkpt lat="42.79051" lon="1.83415">
        <ele>1838.18</ele>
        <time>2017-04-29T09:09:01Z</time>
      </trkpt>
      <trkpt lat="42.7906" lon="1.83413">
        <ele>1838.18</ele>
        <time>2017-04-29T09:09:12Z</time>
      </trkpt>
      <trkpt lat="42.79069" lon="1.83412">
        <ele>1837.7</ele>
        <time>2017-04-29T09:09:23Z</time>
      </trkpt>
      <trkpt lat="42.79078" lon="1.83406">
        <ele>1837.7</ele>
        <time>2017-04-29T09:09:36Z</time>
      </trkpt>
      <trkpt lat="42.79083" lon="1.83395">
        <ele>1837.7</ele>
        <time>2017-04-29T09:09:47Z</time>
      </trkpt>
      <trkpt lat="42.79087" lon="1.83382">
        <ele>1836.74</ele>
        <time>2017-04-29T09:09:57Z</time>
      </trkpt>
      <trkpt lat="42.79089" lon="1.8337">
        <ele>1836.74</ele>
        <time>2017-04-29T09:10:08Z</time>
      </trkpt>
      <trkpt lat="42.79091" lon="1.83358">
        <ele>1838.66</ele>
        <time>2017-04-29T09:10:21Z</time>
      </trkpt>
      <trkpt lat="42.79095" lon="1.83347">
        <ele>1839.62</ele>
        <time>2017-04-29T09:10:35Z</time>
      </trkpt>
      <trkpt lat="42.79099" lon="1.83337">
        <ele>1842.02</ele>
        <time>2017-04-29T09:10:48Z</time>
      </trkpt>
      <trkpt lat="42.79107" lon="1.83331">
        <ele>1844.43</ele>
        <time>2017-04-29T09:11:03Z</time>
      </trkpt>
      <trkpt lat="42.79114" lon="1.83322">
        <ele>1846.83</ele>
        <time>2017-04-29T09:11:19Z</time>
      </trkpt>
      <trkpt lat="42.79122" lon="1.83313">
        <ele>1848.27</ele>
        <time>2017-04-29T09:11:33Z</time>
      </trkpt>
      <trkpt lat="42.7913" lon="1.83308">
        <ele>1849.23</ele>
        <time>2017-04-29T09:11:45Z</time>
      </trkpt>
      <trkpt lat="42.79138" lon="1.833">
        <ele>1850.19</ele>
        <time>2017-04-29T09:11:57Z</time>
      </trkpt>
      <trkpt lat="42.79142" lon="1.8329">
        <ele>1850.68</ele>
        <time>2017-04-29T09:12:10Z</time>
      </trkpt>
      <trkpt lat="42.79148" lon="1.8328">
        <ele>1851.64</ele>
        <time>2017-04-29T09:12:22Z</time>
      </trkpt>
      <trkpt lat="42.79154" lon="1.83271">
        <ele>1851.64</ele>
        <time>2017-04-29T09:12:34Z</time>
      </trkpt>
      <trkpt lat="42.79159" lon="1.8326">
        <ele>1853.08</ele>
        <time>2017-04-29T09:12:46Z</time>
      </trkpt>
      <trkpt lat="42.79165" lon="1.8325">
        <ele>1853.56</ele>
        <time>2017-04-29T09:12:58Z</time>
      </trkpt>
      <trkpt lat="42.7917" lon="1.8324">
        <ele>1854.04</ele>
        <time>2017-04-29T09:13:10Z</time>
      </trkpt>
      <trkpt lat="42.79175" lon="1.83229">
        <ele>1854.52</ele>
        <time>2017-04-29T09:13:23Z</time>
      </trkpt>
      <trkpt lat="42.79183" lon="1.8322">
        <ele>1855.96</ele>
        <time>2017-04-29T09:13:38Z</time>
      </trkpt>
      <trkpt lat="42.79191" lon="1.83212">
        <ele>1856.44</ele>
        <time>2017-04-29T09:13:50Z</time>
      </trkpt>
      <trkpt lat="42.79201" lon="1.83208">
        <ele>1857.4</ele>
        <time>2017-04-29T09:14:04Z</time>
      </trkpt>
      <trkpt lat="42.79209" lon="1.83203">
        <ele>1857.89</ele>
        <time>2017-04-29T09:14:18Z</time>
      </trkpt>
      <trkpt lat="42.79219" lon="1.83201">
        <ele>1859.33</ele>
        <time>2017-04-29T09:14:32Z</time>
      </trkpt>
      <trkpt lat="42.79228" lon="1.83202">
        <ele>1859.81</ele>
        <time>2017-04-29T09:14:45Z</time>
      </trkpt>
      <trkpt lat="42.79236" lon="1.83202">
        <ele>1861.25</ele>
        <time>2017-04-29T09:14:57Z</time>
      </trkpt>
      <trkpt lat="42.79246" lon="1.83201">
        <ele>1861.25</ele>
        <time>2017-04-29T09:15:11Z</time>
      </trkpt>
      <trkpt lat="42.79255" lon="1.832">
        <ele>1861.73</ele>
        <time>2017-04-29T09:15:25Z</time>
      </trkpt>
      <trkpt lat="42.79264" lon="1.83199">
        <ele>1862.69</ele>
        <time>2017-04-29T09:15:37Z</time>
      </trkpt>
      <trkpt lat="42.79273" lon="1.83198">
        <ele>1863.17</ele>
        <time>2017-04-29T09:15:49Z</time>
      </trkpt>
      <trkpt lat="42.79283" lon="1.832">
        <ele>1864.13</ele>
        <time>2017-04-29T09:16:02Z</time>
      </trkpt>
      <trkpt lat="42.79291" lon="1.83206">
        <ele>1865.09</ele>
        <time>2017-04-29T09:16:16Z</time>
      </trkpt>
      <trkpt lat="42.793" lon="1.83204">
        <ele>1867.02</ele>
        <time>2017-04-29T09:16:30Z</time>
      </trkpt>
      <trkpt lat="42.79309" lon="1.83199">
        <ele>1868.46</ele>
        <time>2017-04-29T09:16:43Z</time>
      </trkpt>
      <trkpt lat="42.79317" lon="1.83197">
        <ele>1870.38</ele>
        <time>2017-04-29T09:16:57Z</time>
      </trkpt>
      <trkpt lat="42.79326" lon="1.83193">
        <ele>1871.82</ele>
        <time>2017-04-29T09:17:11Z</time>
      </trkpt>
      <trkpt lat="42.79335" lon="1.83191">
        <ele>1874.23</ele>
        <time>2017-04-29T09:17:30Z</time>
      </trkpt>
      <trkpt lat="42.79343" lon="1.83185">
        <ele>1877.59</ele>
        <time>2017-04-29T09:17:51Z</time>
      </trkpt>
      <trkpt lat="42.79352" lon="1.83183">
        <ele>1878.55</ele>
        <time>2017-04-29T09:18:39Z</time>
      </trkpt>
      <trkpt lat="42.79361" lon="1.83178">
        <ele>1881.92</ele>
        <time>2017-04-29T09:18:55Z</time>
      </trkpt>
      <trkpt lat="42.79367" lon="1.83168">
        <ele>1883.36</ele>
        <time>2017-04-29T09:19:09Z</time>
      </trkpt>
      <trkpt lat="42.79372" lon="1.83157">
        <ele>1884.8</ele>
        <time>2017-04-29T09:19:22Z</time>
      </trkpt>
      <trkpt lat="42.79377" lon="1.8315">
        <ele>1884.8</ele>
        <time>2017-04-29T09:19:36Z</time>
      </trkpt>
      <trkpt lat="42.79385" lon="1.83146">
        <ele>1887.21</ele>
        <time>2017-04-29T09:19:51Z</time>
      </trkpt>
      <trkpt lat="42.79394" lon="1.83143">
        <ele>1889.61</ele>
        <time>2017-04-29T09:20:10Z</time>
      </trkpt>
      <trkpt lat="42.79403" lon="1.83138">
        <ele>1892.01</ele>
        <time>2017-04-29T09:20:30Z</time>
      </trkpt>
      <trkpt lat="42.79409" lon="1.8313">
        <ele>1893.93</ele>
        <time>2017-04-29T09:20:50Z</time>
      </trkpt>
      <trkpt lat="42.79418" lon="1.83125">
        <ele>1895.38</ele>
        <time>2017-04-29T09:21:08Z</time>
      </trkpt>
      <trkpt lat="42.79426" lon="1.83119">
        <ele>1897.3</ele>
        <time>2017-04-29T09:21:25Z</time>
      </trkpt>
      <trkpt lat="42.79434" lon="1.83113">
        <ele>1899.7</ele>
        <time>2017-04-29T09:22:21Z</time>
      </trkpt>
      <trkpt lat="42.79441" lon="1.8311">
        <ele>1902.59</ele>
        <time>2017-04-29T09:23:23Z</time>
      </trkpt>
      <trkpt lat="42.7945" lon="1.83108">
        <ele>1904.51</ele>
        <time>2017-04-29T09:23:37Z</time>
      </trkpt>
      <trkpt lat="42.79459" lon="1.83106">
        <ele>1907.87</ele>
        <time>2017-04-29T09:23:52Z</time>
      </trkpt>
      <trkpt lat="42.79468" lon="1.83106">
        <ele>1909.32</ele>
        <time>2017-04-29T09:24:06Z</time>
      </trkpt>
      <trkpt lat="42.79477" lon="1.83102">
        <ele>1910.28</ele>
        <time>2017-04-29T09:24:20Z</time>
      </trkpt>
      <trkpt lat="42.79486" lon="1.83098">
        <ele>1913.16</ele>
        <time>2017-04-29T09:24:34Z</time>
      </trkpt>
      <trkpt lat="42.79493" lon="1.83092">
        <ele>1915.08</ele>
        <time>2017-04-29T09:24:54Z</time>
      </trkpt>
      <trkpt lat="42.79501" lon="1.8309">
        <ele>1917.49</ele>
        <time>2017-04-29T09:25:12Z</time>
      </trkpt>
      <trkpt lat="42.7951" lon="1.83086">
        <ele>1918.93</ele>
        <time>2017-04-29T09:25:31Z</time>
      </trkpt>
      <trkpt lat="42.79519" lon="1.83086">
        <ele>1920.85</ele>
        <time>2017-04-29T09:25:46Z</time>
      </trkpt>
      <trkpt lat="42.79525" lon="1.83075">
        <ele>1922.77</ele>
        <time>2017-04-29T09:26:05Z</time>
      </trkpt>
      <trkpt lat="42.79531" lon="1.83065">
        <ele>1924.22</ele>
        <time>2017-04-29T09:26:22Z</time>
      </trkpt>
      <trkpt lat="42.79538" lon="1.83056">
        <ele>1928.06</ele>
        <time>2017-04-29T09:26:39Z</time>
      </trkpt>
      <trkpt lat="42.79541" lon="1.83055">
        <ele>1926.14</ele>
        <time>2017-04-29T09:27:16Z</time>
      </trkpt>
      <trkpt lat="42.79541" lon="1.83055">
        <ele>1935.75</ele>
        <time>2017-04-29T11:01:40Z</time>
      </trkpt>
      <trkpt lat="42.79543" lon="1.83054">
        <ele>1933.35</ele>
        <time>2017-04-29T11:06:03Z</time>
      </trkpt>
      <trkpt lat="42.79542" lon="1.83065">
        <ele>1932.87</ele>
        <time>2017-04-29T11:06:23Z</time>
      </trkpt>
      <trkpt lat="42.79533" lon="1.83069">
        <ele>1930.95</ele>
        <time>2017-04-29T11:07:02Z</time>
      </trkpt>
      <trkpt lat="42.79525" lon="1.83075">
        <ele>1928.06</ele>
        <time>2017-04-29T11:07:22Z</time>
      </trkpt>
      <trkpt lat="42.7952" lon="1.83084">
        <ele>1926.62</ele>
        <time>2017-04-29T11:07:37Z</time>
      </trkpt>
      <trkpt lat="42.79517" lon="1.83095">
        <ele>1925.18</ele>
        <time>2017-04-29T11:07:49Z</time>
      </trkpt>
      <trkpt lat="42.79518" lon="1.83107">
        <ele>1925.18</ele>
        <time>2017-04-29T11:08:01Z</time>
      </trkpt>
      <trkpt lat="42.79517" lon="1.83119">
        <ele>1924.7</ele>
        <time>2017-04-29T11:08:13Z</time>
      </trkpt>
      <trkpt lat="42.79512" lon="1.83129">
        <ele>1924.22</ele>
        <time>2017-04-29T11:08:24Z</time>
      </trkpt>
      <trkpt lat="42.79505" lon="1.83129">
        <ele>1922.77</ele>
        <time>2017-04-29T11:08:46Z</time>
      </trkpt>
      <trkpt lat="42.79497" lon="1.83123">
        <ele>1920.85</ele>
        <time>2017-04-29T11:09:00Z</time>
      </trkpt>
      <trkpt lat="42.79487" lon="1.83122">
        <ele>1920.37</ele>
        <time>2017-04-29T11:09:12Z</time>
      </trkpt>
      <trkpt lat="42.79478" lon="1.83118">
        <ele>1917.97</ele>
        <time>2017-04-29T11:09:25Z</time>
      </trkpt>
      <trkpt lat="42.79468" lon="1.83113">
        <ele>1913.64</ele>
        <time>2017-04-29T11:09:38Z</time>
      </trkpt>
      <trkpt lat="42.79459" lon="1.83108">
        <ele>1912.2</ele>
        <time>2017-04-29T11:09:49Z</time>
      </trkpt>
      <trkpt lat="42.7945" lon="1.83106">
        <ele>1910.76</ele>
        <time>2017-04-29T11:10:02Z</time>
      </trkpt>
      <trkpt lat="42.79442" lon="1.83106">
        <ele>1907.87</ele>
        <time>2017-04-29T11:10:18Z</time>
      </trkpt>
      <trkpt lat="42.79434" lon="1.83113">
        <ele>1904.51</ele>
        <time>2017-04-29T11:10:30Z</time>
      </trkpt>
      <trkpt lat="42.79427" lon="1.83121">
        <ele>1902.11</ele>
        <time>2017-04-29T11:10:43Z</time>
      </trkpt>
      <trkpt lat="42.79421" lon="1.8313">
        <ele>1901.63</ele>
        <time>2017-04-29T11:10:53Z</time>
      </trkpt>
      <trkpt lat="42.79414" lon="1.83139">
        <ele>1899.7</ele>
        <time>2017-04-29T11:11:05Z</time>
      </trkpt>
      <trkpt lat="42.79406" lon="1.83149">
        <ele>1897.3</ele>
        <time>2017-04-29T11:11:19Z</time>
      </trkpt>
      <trkpt lat="42.79398" lon="1.83156">
        <ele>1895.86</ele>
        <time>2017-04-29T11:11:29Z</time>
      </trkpt>
      <trkpt lat="42.7939" lon="1.83161">
        <ele>1893.45</ele>
        <time>2017-04-29T11:11:41Z</time>
      </trkpt>
      <trkpt lat="42.79383" lon="1.83166">
        <ele>1891.53</ele>
        <time>2017-04-29T11:11:56Z</time>
      </trkpt>
      <trkpt lat="42.79373" lon="1.83167">
        <ele>1890.09</ele>
        <time>2017-04-29T11:12:07Z</time>
      </trkpt>
      <trkpt lat="42.79364" lon="1.83168">
        <ele>1888.17</ele>
        <time>2017-04-29T11:12:18Z</time>
      </trkpt>
      <trkpt lat="42.79355" lon="1.83171">
        <ele>1886.72</ele>
        <time>2017-04-29T11:12:28Z</time>
      </trkpt>
      <trkpt lat="42.79347" lon="1.83177">
        <ele>1883.84</ele>
        <time>2017-04-29T11:12:39Z</time>
      </trkpt>
      <trkpt lat="42.79339" lon="1.83182">
        <ele>1881.44</ele>
        <time>2017-04-29T11:12:50Z</time>
      </trkpt>
      <trkpt lat="42.79329" lon="1.83183">
        <ele>1878.55</ele>
        <time>2017-04-29T11:13:02Z</time>
      </trkpt>
      <trkpt lat="42.79321" lon="1.83187">
        <ele>1876.63</ele>
        <time>2017-04-29T11:13:13Z</time>
      </trkpt>
      <trkpt lat="42.79311" lon="1.83189">
        <ele>1874.71</ele>
        <time>2017-04-29T11:13:24Z</time>
      </trkpt>
      <trkpt lat="42.79302" lon="1.83194">
        <ele>1873.27</ele>
        <time>2017-04-29T11:13:34Z</time>
      </trkpt>
      <trkpt lat="42.79293" lon="1.83201">
        <ele>1871.34</ele>
        <time>2017-04-29T11:13:44Z</time>
      </trkpt>
      <trkpt lat="42.79287" lon="1.83209">
        <ele>1868.94</ele>
        <time>2017-04-29T11:13:54Z</time>
      </trkpt>
      <trkpt lat="42.79281" lon="1.83215">
        <ele>1868.94</ele>
        <time>2017-04-29T11:14:03Z</time>
      </trkpt>
      <trkpt lat="42.79272" lon="1.83222">
        <ele>1867.5</ele>
        <time>2017-04-29T11:14:13Z</time>
      </trkpt>
      <trkpt lat="42.79265" lon="1.83228">
        <ele>1866.06</ele>
        <time>2017-04-29T11:14:24Z</time>
      </trkpt>
      <trkpt lat="42.79257" lon="1.83236">
        <ele>1864.61</ele>
        <time>2017-04-29T11:14:34Z</time>
      </trkpt>
      <trkpt lat="42.79251" lon="1.83244">
        <ele>1863.17</ele>
        <time>2017-04-29T11:14:44Z</time>
      </trkpt>
      <trkpt lat="42.7925" lon="1.83246">
        <ele>1861.25</ele>
        <time>2017-04-29T11:17:02Z</time>
      </trkpt>
      <trkpt lat="42.7925" lon="1.83256">
        <ele>1860.77</ele>
        <time>2017-04-29T11:17:51Z</time>
      </trkpt>
      <trkpt lat="42.79245" lon="1.83268">
        <ele>1858.85</ele>
        <time>2017-04-29T11:18:08Z</time>
      </trkpt>
      <trkpt lat="42.79239" lon="1.8327">
        <ele>1857.4</ele>
        <time>2017-04-29T11:18:34Z</time>
      </trkpt>
      <trkpt lat="42.7923" lon="1.83271">
        <ele>1857.4</ele>
        <time>2017-04-29T11:18:49Z</time>
      </trkpt>
      <trkpt lat="42.79221" lon="1.83272">
        <ele>1857.4</ele>
        <time>2017-04-29T11:19:03Z</time>
      </trkpt>
      <trkpt lat="42.79212" lon="1.83275">
        <ele>1855.48</ele>
        <time>2017-04-29T11:19:16Z</time>
      </trkpt>
      <trkpt lat="42.79204" lon="1.83276">
        <ele>1854.04</ele>
        <time>2017-04-29T11:19:54Z</time>
      </trkpt>
      <trkpt lat="42.79195" lon="1.83286">
        <ele>1853.56</ele>
        <time>2017-04-29T11:20:06Z</time>
      </trkpt>
      <trkpt lat="42.7919" lon="1.83294">
        <ele>1852.12</ele>
        <time>2017-04-29T11:20:17Z</time>
      </trkpt>
      <trkpt lat="42.79183" lon="1.83302">
        <ele>1851.16</ele>
        <time>2017-04-29T11:20:28Z</time>
      </trkpt>
      <trkpt lat="42.79177" lon="1.83311">
        <ele>1850.19</ele>
        <time>2017-04-29T11:20:40Z</time>
      </trkpt>
      <trkpt lat="42.79169" lon="1.83319">
        <ele>1850.68</ele>
        <time>2017-04-29T11:20:51Z</time>
      </trkpt>
      <trkpt lat="42.79164" lon="1.83326">
        <ele>1848.75</ele>
        <time>2017-04-29T11:21:02Z</time>
      </trkpt>
      <trkpt lat="42.79158" lon="1.83336">
        <ele>1847.31</ele>
        <time>2017-04-29T11:21:15Z</time>
      </trkpt>
      <trkpt lat="42.79151" lon="1.83345">
        <ele>1845.87</ele>
        <time>2017-04-29T11:21:38Z</time>
      </trkpt>
      <trkpt lat="42.79145" lon="1.83354">
        <ele>1846.35</ele>
        <time>2017-04-29T11:21:49Z</time>
      </trkpt>
      <trkpt lat="42.79137" lon="1.83362">
        <ele>1845.39</ele>
        <time>2017-04-29T11:21:59Z</time>
      </trkpt>
      <trkpt lat="42.79131" lon="1.8337">
        <ele>1844.91</ele>
        <time>2017-04-29T11:22:09Z</time>
      </trkpt>
      <trkpt lat="42.79125" lon="1.8338">
        <ele>1843.47</ele>
        <time>2017-04-29T11:22:19Z</time>
      </trkpt>
      <trkpt lat="42.79118" lon="1.8339">
        <ele>1842.02</ele>
        <time>2017-04-29T11:22:30Z</time>
      </trkpt>
      <trkpt lat="42.79111" lon="1.834">
        <ele>1840.1</ele>
        <time>2017-04-29T11:22:42Z</time>
      </trkpt>
      <trkpt lat="42.79103" lon="1.83407">
        <ele>1841.54</ele>
        <time>2017-04-29T11:23:20Z</time>
      </trkpt>
      <trkpt lat="42.79095" lon="1.83412">
        <ele>1840.58</ele>
        <time>2017-04-29T11:23:31Z</time>
      </trkpt>
      <trkpt lat="42.79088" lon="1.8342">
        <ele>1840.1</ele>
        <time>2017-04-29T11:23:43Z</time>
      </trkpt>
      <trkpt lat="42.79081" lon="1.83429">
        <ele>1839.62</ele>
        <time>2017-04-29T11:23:53Z</time>
      </trkpt>
      <trkpt lat="42.79074" lon="1.83436">
        <ele>1840.1</ele>
        <time>2017-04-29T11:24:03Z</time>
      </trkpt>
      <trkpt lat="42.79066" lon="1.83445">
        <ele>1840.58</ele>
        <time>2017-04-29T11:24:14Z</time>
      </trkpt>
      <trkpt lat="42.7906" lon="1.83454">
        <ele>1840.58</ele>
        <time>2017-04-29T11:24:25Z</time>
      </trkpt>
      <trkpt lat="42.79052" lon="1.83463">
        <ele>1841.06</ele>
        <time>2017-04-29T11:24:36Z</time>
      </trkpt>
      <trkpt lat="42.79046" lon="1.83473">
        <ele>1841.54</ele>
        <time>2017-04-29T11:24:47Z</time>
      </trkpt>
      <trkpt lat="42.7904" lon="1.8348">
        <ele>1842.98</ele>
        <time>2017-04-29T11:24:58Z</time>
      </trkpt>
      <trkpt lat="42.79033" lon="1.83487">
        <ele>1842.02</ele>
        <time>2017-04-29T11:25:09Z</time>
      </trkpt>
      <trkpt lat="42.79025" lon="1.83494">
        <ele>1842.02</ele>
        <time>2017-04-29T11:25:21Z</time>
      </trkpt>
      <trkpt lat="42.79018" lon="1.83502">
        <ele>1840.58</ele>
        <time>2017-04-29T11:25:31Z</time>
      </trkpt>
      <trkpt lat="42.7901" lon="1.83506">
        <ele>1840.1</ele>
        <time>2017-04-29T11:25:41Z</time>
      </trkpt>
      <trkpt lat="42.79001" lon="1.83512">
        <ele>1835.29</ele>
        <time>2017-04-29T11:25:55Z</time>
      </trkpt>
      <trkpt lat="42.78994" lon="1.83521">
        <ele>1838.18</ele>
        <time>2017-04-29T11:26:05Z</time>
      </trkpt>
      <trkpt lat="42.78987" lon="1.83528">
        <ele>1837.7</ele>
        <time>2017-04-29T11:26:15Z</time>
      </trkpt>
      <trkpt lat="42.78979" lon="1.83534">
        <ele>1838.18</ele>
        <time>2017-04-29T11:26:25Z</time>
      </trkpt>
      <trkpt lat="42.78971" lon="1.83539">
        <ele>1840.1</ele>
        <time>2017-04-29T11:26:36Z</time>
      </trkpt>
      <trkpt lat="42.78965" lon="1.83549">
        <ele>1839.14</ele>
        <time>2017-04-29T11:26:47Z</time>
      </trkpt>
      <trkpt lat="42.78958" lon="1.83558">
        <ele>1838.66</ele>
        <time>2017-04-29T11:26:59Z</time>
      </trkpt>
      <trkpt lat="42.78952" lon="1.83568">
        <ele>1842.02</ele>
        <time>2017-04-29T11:27:11Z</time>
      </trkpt>
      <trkpt lat="42.78944" lon="1.83574">
        <ele>1843.47</ele>
        <time>2017-04-29T11:27:26Z</time>
      </trkpt>
      <trkpt lat="42.78936" lon="1.83581">
        <ele>1843.95</ele>
        <time>2017-04-29T11:27:41Z</time>
      </trkpt>
      <trkpt lat="42.78928" lon="1.83587">
        <ele>1844.91</ele>
        <time>2017-04-29T11:27:54Z</time>
      </trkpt>
      <trkpt lat="42.78921" lon="1.83594">
        <ele>1844.91</ele>
        <time>2017-04-29T11:28:08Z</time>
      </trkpt>
      <trkpt lat="42.78917" lon="1.83602">
        <ele>1845.39</ele>
        <time>2017-04-29T11:28:39Z</time>
      </trkpt>
      <trkpt lat="42.78917" lon="1.83614">
        <ele>1844.91</ele>
        <time>2017-04-29T11:28:49Z</time>
      </trkpt>
      <trkpt lat="42.78916" lon="1.83626">
        <ele>1845.39</ele>
        <time>2017-04-29T11:28:59Z</time>
      </trkpt>
      <trkpt lat="42.78915" lon="1.83639">
        <ele>1843.47</ele>
        <time>2017-04-29T11:29:09Z</time>
      </trkpt>
      <trkpt lat="42.78915" lon="1.83653">
        <ele>1846.35</ele>
        <time>2017-04-29T11:29:22Z</time>
      </trkpt>
      <trkpt lat="42.78918" lon="1.83665">
        <ele>1843.47</ele>
        <time>2017-04-29T11:29:33Z</time>
      </trkpt>
      <trkpt lat="42.78921" lon="1.83676">
        <ele>1839.62</ele>
        <time>2017-04-29T11:29:46Z</time>
      </trkpt>
      <trkpt lat="42.78925" lon="1.83687">
        <ele>1838.66</ele>
        <time>2017-04-29T11:29:58Z</time>
      </trkpt>
      <trkpt lat="42.78929" lon="1.83698">
        <ele>1838.66</ele>
        <time>2017-04-29T11:30:26Z</time>
      </trkpt>
      <trkpt lat="42.78932" lon="1.83709">
        <ele>1834.81</ele>
        <time>2017-04-29T11:30:45Z</time>
      </trkpt>
      <trkpt lat="42.78936" lon="1.83719">
        <ele>1830.01</ele>
        <time>2017-04-29T11:31:02Z</time>
      </trkpt>
      <trkpt lat="42.78939" lon="1.83722">
        <ele>1829.53</ele>
        <time>2017-04-29T11:31:38Z</time>
      </trkpt>
      <trkpt lat="42.78937" lon="1.83733">
        <ele>1828.56</ele>
        <time>2017-04-29T11:31:54Z</time>
      </trkpt>
      <trkpt lat="42.78933" lon="1.83744">
        <ele>1827.6</ele>
        <time>2017-04-29T11:32:06Z</time>
      </trkpt>
      <trkpt lat="42.78931" lon="1.83754">
        <ele>1825.2</ele>
        <time>2017-04-29T11:32:20Z</time>
      </trkpt>
      <trkpt lat="42.78931" lon="1.83765">
        <ele>1823.76</ele>
        <time>2017-04-29T11:32:37Z</time>
      </trkpt>
      <trkpt lat="42.78934" lon="1.83775">
        <ele>1820.39</ele>
        <time>2017-04-29T11:32:52Z</time>
      </trkpt>
      <trkpt lat="42.78934" lon="1.83785">
        <ele>1819.43</ele>
        <time>2017-04-29T11:33:12Z</time>
      </trkpt>
      <trkpt lat="42.7893" lon="1.83795">
        <ele>1817.51</ele>
        <time>2017-04-29T11:33:24Z</time>
      </trkpt>
      <trkpt lat="42.7893" lon="1.83808">
        <ele>1816.55</ele>
        <time>2017-04-29T11:33:36Z</time>
      </trkpt>
      <trkpt lat="42.78927" lon="1.83819">
        <ele>1817.99</ele>
        <time>2017-04-29T11:33:50Z</time>
      </trkpt>
      <trkpt lat="42.78928" lon="1.83827">
        <ele>1815.59</ele>
        <time>2017-04-29T11:34:10Z</time>
      </trkpt>
      <trkpt lat="42.78932" lon="1.83833">
        <ele>1813.66</ele>
        <time>2017-04-29T11:37:04Z</time>
      </trkpt>
      <trkpt lat="42.78938" lon="1.83842">
        <ele>1809.82</ele>
        <time>2017-04-29T11:37:22Z</time>
      </trkpt>
      <trkpt lat="42.78943" lon="1.83851">
        <ele>1805.49</ele>
        <time>2017-04-29T11:37:38Z</time>
      </trkpt>
      <trkpt lat="42.78945" lon="1.83861">
        <ele>1801.17</ele>
        <time>2017-04-29T11:37:56Z</time>
      </trkpt>
      <trkpt lat="42.78948" lon="1.83873">
        <ele>1800.69</ele>
        <time>2017-04-29T11:38:22Z</time>
      </trkpt>
      <trkpt lat="42.78955" lon="1.83879">
        <ele>1794.44</ele>
        <time>2017-04-29T11:38:42Z</time>
      </trkpt>
      <trkpt lat="42.78962" lon="1.83888">
        <ele>1791.07</ele>
        <time>2017-04-29T11:39:05Z</time>
      </trkpt>
      <trkpt lat="42.78969" lon="1.83896">
        <ele>1787.23</ele>
        <time>2017-04-29T11:39:40Z</time>
      </trkpt>
      <trkpt lat="42.78975" lon="1.83904">
        <ele>1782.42</ele>
        <time>2017-04-29T11:39:56Z</time>
      </trkpt>
      <trkpt lat="42.7898" lon="1.83915">
        <ele>1779.06</ele>
        <time>2017-04-29T11:40:14Z</time>
      </trkpt>
      <trkpt lat="42.78988" lon="1.8392">
        <ele>1774.73</ele>
        <time>2017-04-29T11:40:30Z</time>
      </trkpt>
      <trkpt lat="42.78989" lon="1.83931">
        <ele>1772.33</ele>
        <time>2017-04-29T11:40:44Z</time>
      </trkpt>
      <trkpt lat="42.78994" lon="1.8393">
        <ele>1771.37</ele>
        <time>2017-04-29T11:41:12Z</time>
      </trkpt>
      <trkpt lat="42.79002" lon="1.83934">
        <ele>1771.85</ele>
        <time>2017-04-29T11:41:21Z</time>
      </trkpt>
      <trkpt lat="42.79002" lon="1.83943">
        <ele>1769.44</ele>
        <time>2017-04-29T11:41:32Z</time>
      </trkpt>
      <trkpt lat="42.78997" lon="1.83953">
        <ele>1767.04</ele>
        <time>2017-04-29T11:41:43Z</time>
      </trkpt>
      <trkpt lat="42.78989" lon="1.83961">
        <ele>1764.64</ele>
        <time>2017-04-29T11:41:56Z</time>
      </trkpt>
      <trkpt lat="42.78982" lon="1.83966">
        <ele>1761.27</ele>
        <time>2017-04-29T11:42:12Z</time>
      </trkpt>
      <trkpt lat="42.78975" lon="1.83973">
        <ele>1760.31</ele>
        <time>2017-04-29T11:42:23Z</time>
      </trkpt>
      <trkpt lat="42.78969" lon="1.83979">
        <ele>1757.43</ele>
        <time>2017-04-29T11:42:34Z</time>
      </trkpt>
      <trkpt lat="42.78961" lon="1.83986">
        <ele>1757.43</ele>
        <time>2017-04-29T11:42:47Z</time>
      </trkpt>
      <trkpt lat="42.78954" lon="1.83994">
        <ele>1755.99</ele>
        <time>2017-04-29T11:42:59Z</time>
      </trkpt>
      <trkpt lat="42.78945" lon="1.84001">
        <ele>1755.99</ele>
        <time>2017-04-29T11:43:10Z</time>
      </trkpt>
      <trkpt lat="42.78937" lon="1.84005">
        <ele>1757.91</ele>
        <time>2017-04-29T11:43:24Z</time>
      </trkpt>
      <trkpt lat="42.78929" lon="1.84007">
        <ele>1755.5</ele>
        <time>2017-04-29T11:43:39Z</time>
      </trkpt>
      <trkpt lat="42.78919" lon="1.84005">
        <ele>1756.95</ele>
        <time>2017-04-29T11:43:53Z</time>
      </trkpt>
      <trkpt lat="42.78912" lon="1.84002">
        <ele>1761.27</ele>
        <time>2017-04-29T11:44:08Z</time>
      </trkpt>
      <trkpt lat="42.78905" lon="1.84006">
        <ele>1758.87</ele>
        <time>2017-04-29T11:44:33Z</time>
      </trkpt>
      <trkpt lat="42.78896" lon="1.84003">
        <ele>1756.95</ele>
        <time>2017-04-29T11:44:44Z</time>
      </trkpt>
      <trkpt lat="42.78888" lon="1.84007">
        <ele>1756.47</ele>
        <time>2017-04-29T11:44:58Z</time>
      </trkpt>
      <trkpt lat="42.7888" lon="1.84014">
        <ele>1752.14</ele>
        <time>2017-04-29T11:45:33Z</time>
      </trkpt>
      <trkpt lat="42.78874" lon="1.84025">
        <ele>1750.22</ele>
        <time>2017-04-29T11:45:45Z</time>
      </trkpt>
      <trkpt lat="42.78869" lon="1.84035">
        <ele>1745.89</ele>
        <time>2017-04-29T11:45:58Z</time>
      </trkpt>
      <trkpt lat="42.78866" lon="1.84043">
        <ele>1746.85</ele>
        <time>2017-04-29T11:46:09Z</time>
      </trkpt>
      <trkpt lat="42.78862" lon="1.84057">
        <ele>1745.89</ele>
        <time>2017-04-29T11:46:24Z</time>
      </trkpt>
      <trkpt lat="42.78859" lon="1.84064">
        <ele>1743.97</ele>
        <time>2017-04-29T11:46:40Z</time>
      </trkpt>
      <trkpt lat="42.78852" lon="1.84068">
        <ele>1740.12</ele>
        <time>2017-04-29T11:47:06Z</time>
      </trkpt>
      <trkpt lat="42.78849" lon="1.84079">
        <ele>1740.12</ele>
        <time>2017-04-29T11:47:15Z</time>
      </trkpt>
      <trkpt lat="42.7884" lon="1.84079">
        <ele>1739.64</ele>
        <time>2017-04-29T11:47:24Z</time>
      </trkpt>
      <trkpt lat="42.78833" lon="1.84081">
        <ele>1739.16</ele>
        <time>2017-04-29T11:47:38Z</time>
      </trkpt>
      <trkpt lat="42.78825" lon="1.84084">
        <ele>1739.64</ele>
        <time>2017-04-29T11:47:56Z</time>
      </trkpt>
      <trkpt lat="42.78817" lon="1.84082">
        <ele>1738.2</ele>
        <time>2017-04-29T11:48:16Z</time>
      </trkpt>
      <trkpt lat="42.78812" lon="1.84087">
        <ele>1736.76</ele>
        <time>2017-04-29T11:48:51Z</time>
      </trkpt>
      <trkpt lat="42.78803" lon="1.84097">
        <ele>1735.8</ele>
        <time>2017-04-29T11:49:04Z</time>
      </trkpt>
      <trkpt lat="42.78798" lon="1.84107">
        <ele>1733.39</ele>
        <time>2017-04-29T11:49:14Z</time>
      </trkpt>
      <trkpt lat="42.78793" lon="1.84117">
        <ele>1731.95</ele>
        <time>2017-04-29T11:49:27Z</time>
      </trkpt>
      <trkpt lat="42.78789" lon="1.84129">
        <ele>1730.03</ele>
        <time>2017-04-29T11:49:43Z</time>
      </trkpt>
      <trkpt lat="42.78788" lon="1.8414">
        <ele>1727.63</ele>
        <time>2017-04-29T11:49:54Z</time>
      </trkpt>
      <trkpt lat="42.78786" lon="1.84149">
        <ele>1724.74</ele>
        <time>2017-04-29T11:50:06Z</time>
      </trkpt>
      <trkpt lat="42.78781" lon="1.8416">
        <ele>1721.38</ele>
        <time>2017-04-29T11:50:18Z</time>
      </trkpt>
      <trkpt lat="42.78776" lon="1.84166">
        <ele>1718.49</ele>
        <time>2017-04-29T11:50:45Z</time>
      </trkpt>
      <trkpt lat="42.78778" lon="1.84184">
        <ele>1716.57</ele>
        <time>2017-04-29T11:51:12Z</time>
      </trkpt>
      <trkpt lat="42.78775" lon="1.84188">
        <ele>1713.21</ele>
        <time>2017-04-29T11:51:33Z</time>
      </trkpt>
      <trkpt lat="42.78769" lon="1.84199">
        <ele>1709.36</ele>
        <time>2017-04-29T11:51:59Z</time>
      </trkpt>
      <trkpt lat="42.78765" lon="1.84209">
        <ele>1706.96</ele>
        <time>2017-04-29T11:52:12Z</time>
      </trkpt>
      <trkpt lat="42.78762" lon="1.84222">
        <ele>1705.04</ele>
        <time>2017-04-29T11:52:27Z</time>
      </trkpt>
      <trkpt lat="42.78757" lon="1.84218">
        <ele>1703.11</ele>
        <time>2017-04-29T11:52:52Z</time>
      </trkpt>
      <trkpt lat="42.78753" lon="1.84214">
        <ele>1701.19</ele>
        <time>2017-04-29T11:53:18Z</time>
      </trkpt>
      <trkpt lat="42.78745" lon="1.84215">
        <ele>1697.34</ele>
        <time>2017-04-29T11:53:35Z</time>
      </trkpt>
      <trkpt lat="42.78742" lon="1.84204">
        <ele>1693.5</ele>
        <time>2017-04-29T11:53:53Z</time>
      </trkpt>
      <trkpt lat="42.78733" lon="1.84192">
        <ele>1691.58</ele>
        <time>2017-04-29T11:54:11Z</time>
      </trkpt>
      <trkpt lat="42.78725" lon="1.84188">
        <ele>1688.69</ele>
        <time>2017-04-29T11:54:23Z</time>
      </trkpt>
      <trkpt lat="42.78716" lon="1.84185">
        <ele>1687.73</ele>
        <time>2017-04-29T11:54:32Z</time>
      </trkpt>
      <trkpt lat="42.78706" lon="1.84182">
        <ele>1686.29</ele>
        <time>2017-04-29T11:54:40Z</time>
      </trkpt>
      <trkpt lat="42.78699" lon="1.84185">
        <ele>1685.33</ele>
        <time>2017-04-29T11:54:49Z</time>
      </trkpt>
      <trkpt lat="42.78688" lon="1.84185">
        <ele>1685.81</ele>
        <time>2017-04-29T11:54:59Z</time>
      </trkpt>
      <trkpt lat="42.78681" lon="1.84189">
        <ele>1684.37</ele>
        <time>2017-04-29T11:55:10Z</time>
      </trkpt>
      <trkpt lat="42.78677" lon="1.842">
        <ele>1682.93</ele>
        <time>2017-04-29T11:55:22Z</time>
      </trkpt>
      <trkpt lat="42.78678" lon="1.84211">
        <ele>1680.52</ele>
        <time>2017-04-29T11:55:33Z</time>
      </trkpt>
      <trkpt lat="42.78678" lon="1.84221">
        <ele>1678.6</ele>
        <time>2017-04-29T11:55:46Z</time>
      </trkpt>
      <trkpt lat="42.78677" lon="1.84234">
        <ele>1677.16</ele>
        <time>2017-04-29T11:55:58Z</time>
      </trkpt>
      <trkpt lat="42.78671" lon="1.84245">
        <ele>1675.72</ele>
        <time>2017-04-29T11:56:09Z</time>
      </trkpt>
      <trkpt lat="42.78666" lon="1.84256">
        <ele>1675.23</ele>
        <time>2017-04-29T11:56:23Z</time>
      </trkpt>
      <trkpt lat="42.7866" lon="1.84263">
        <ele>1675.23</ele>
        <time>2017-04-29T11:56:34Z</time>
      </trkpt>
      <trkpt lat="42.78654" lon="1.84274">
        <ele>1673.31</ele>
        <time>2017-04-29T11:56:45Z</time>
      </trkpt>
      <trkpt lat="42.78647" lon="1.84282">
        <ele>1671.87</ele>
        <time>2017-04-29T11:57:01Z</time>
      </trkpt>
      <trkpt lat="42.78639" lon="1.84292">
        <ele>1670.91</ele>
        <time>2017-04-29T11:57:12Z</time>
      </trkpt>
      <trkpt lat="42.78632" lon="1.84297">
        <ele>1672.83</ele>
        <time>2017-04-29T11:57:25Z</time>
      </trkpt>
      <trkpt lat="42.78623" lon="1.84297">
        <ele>1674.75</ele>
        <time>2017-04-29T11:57:39Z</time>
      </trkpt>
      <trkpt lat="42.78613" lon="1.84297">
        <ele>1674.27</ele>
        <time>2017-04-29T11:57:55Z</time>
      </trkpt>
      <trkpt lat="42.78606" lon="1.84304">
        <ele>1673.31</ele>
        <time>2017-04-29T11:58:06Z</time>
      </trkpt>
      <trkpt lat="42.78601" lon="1.84316">
        <ele>1673.79</ele>
        <time>2017-04-29T11:58:17Z</time>
      </trkpt>
      <trkpt lat="42.78596" lon="1.84326">
        <ele>1673.79</ele>
        <time>2017-04-29T11:58:27Z</time>
      </trkpt>
      <trkpt lat="42.78591" lon="1.84336">
        <ele>1673.79</ele>
        <time>2017-04-29T11:58:37Z</time>
      </trkpt>
      <trkpt lat="42.78584" lon="1.84342">
        <ele>1674.27</ele>
        <time>2017-04-29T11:58:49Z</time>
      </trkpt>
      <trkpt lat="42.78577" lon="1.84347">
        <ele>1674.27</ele>
        <time>2017-04-29T11:59:00Z</time>
      </trkpt>
      <trkpt lat="42.78575" lon="1.84359">
        <ele>1672.35</ele>
        <time>2017-04-29T11:59:13Z</time>
      </trkpt>
      <trkpt lat="42.78574" lon="1.84371">
        <ele>1670.43</ele>
        <time>2017-04-29T11:59:24Z</time>
      </trkpt>
      <trkpt lat="42.78573" lon="1.8438">
        <ele>1668.99</ele>
        <time>2017-04-29T11:59:36Z</time>
      </trkpt>
      <trkpt lat="42.7857" lon="1.84391">
        <ele>1669.95</ele>
        <time>2017-04-29T11:59:48Z</time>
      </trkpt>
      <trkpt lat="42.78563" lon="1.84401">
        <ele>1671.39</ele>
        <time>2017-04-29T12:00:00Z</time>
      </trkpt>
      <trkpt lat="42.78559" lon="1.84413">
        <ele>1672.35</ele>
        <time>2017-04-29T12:00:10Z</time>
      </trkpt>
      <trkpt lat="42.78555" lon="1.84424">
        <ele>1672.83</ele>
        <time>2017-04-29T12:00:23Z</time>
      </trkpt>
      <trkpt lat="42.78554" lon="1.84437">
        <ele>1672.83</ele>
        <time>2017-04-29T12:00:36Z</time>
      </trkpt>
      <trkpt lat="42.78549" lon="1.84444">
        <ele>1672.83</ele>
        <time>2017-04-29T12:00:59Z</time>
      </trkpt>
      <trkpt lat="42.78544" lon="1.84456">
        <ele>1671.87</ele>
        <time>2017-04-29T12:01:11Z</time>
      </trkpt>
      <trkpt lat="42.78538" lon="1.84466">
        <ele>1671.87</ele>
        <time>2017-04-29T12:01:22Z</time>
      </trkpt>
      <trkpt lat="42.78531" lon="1.84475">
        <ele>1672.35</ele>
        <time>2017-04-29T12:01:32Z</time>
      </trkpt>
      <trkpt lat="42.78523" lon="1.84471">
        <ele>1672.35</ele>
        <time>2017-04-29T12:01:44Z</time>
      </trkpt>
      <trkpt lat="42.78513" lon="1.84471">
        <ele>1672.35</ele>
        <time>2017-04-29T12:01:54Z</time>
      </trkpt>
      <trkpt lat="42.78505" lon="1.84471">
        <ele>1672.35</ele>
        <time>2017-04-29T12:02:03Z</time>
      </trkpt>
      <trkpt lat="42.78496" lon="1.84473">
        <ele>1672.35</ele>
        <time>2017-04-29T12:02:15Z</time>
      </trkpt>
      <trkpt lat="42.78484" lon="1.84479">
        <ele>1672.83</ele>
        <time>2017-04-29T12:02:28Z</time>
      </trkpt>
      <trkpt lat="42.78474" lon="1.84484">
        <ele>1673.31</ele>
        <time>2017-04-29T12:02:42Z</time>
      </trkpt>
      <trkpt lat="42.78467" lon="1.84491">
        <ele>1672.83</ele>
        <time>2017-04-29T12:02:52Z</time>
      </trkpt>
      <trkpt lat="42.78463" lon="1.84493">
        <ele>1672.35</ele>
        <time>2017-04-29T12:04:14Z</time>
      </trkpt>
      <trkpt lat="42.78458" lon="1.84485">
        <ele>1671.39</ele>
        <time>2017-04-29T12:04:47Z</time>
      </trkpt>
      <trkpt lat="42.78449" lon="1.84487">
        <ele>1668.51</ele>
        <time>2017-04-29T12:04:58Z</time>
      </trkpt>
      <trkpt lat="42.7844" lon="1.84491">
        <ele>1667.54</ele>
        <time>2017-04-29T12:05:09Z</time>
      </trkpt>
      <trkpt lat="42.78435" lon="1.845">
        <ele>1665.62</ele>
        <time>2017-04-29T12:05:24Z</time>
      </trkpt>
      <trkpt lat="42.78425" lon="1.84499">
        <ele>1663.7</ele>
        <time>2017-04-29T12:05:38Z</time>
      </trkpt>
      <trkpt lat="42.78418" lon="1.84497">
        <ele>1661.78</ele>
        <time>2017-04-29T12:05:51Z</time>
      </trkpt>
      <trkpt lat="42.78411" lon="1.84503">
        <ele>1658.89</ele>
        <time>2017-04-29T12:06:12Z</time>
      </trkpt>
      <trkpt lat="42.78405" lon="1.84499">
        <ele>1656.97</ele>
        <time>2017-04-29T12:06:31Z</time>
      </trkpt>
      <trkpt lat="42.78396" lon="1.84503">
        <ele>1654.09</ele>
        <time>2017-04-29T12:06:47Z</time>
      </trkpt>
      <trkpt lat="42.78391" lon="1.84509">
        <ele>1650.72</ele>
        <time>2017-04-29T12:07:01Z</time>
      </trkpt>
      <trkpt lat="42.78383" lon="1.84513">
        <ele>1647.84</ele>
        <time>2017-04-29T12:07:16Z</time>
      </trkpt>
      <trkpt lat="42.78374" lon="1.84517">
        <ele>1644.47</ele>
        <time>2017-04-29T12:07:32Z</time>
      </trkpt>
      <trkpt lat="42.78364" lon="1.84524">
        <ele>1641.11</ele>
        <time>2017-04-29T12:07:48Z</time>
      </trkpt>
      <trkpt lat="42.78355" lon="1.84524">
        <ele>1638.22</ele>
        <time>2017-04-29T12:08:14Z</time>
      </trkpt>
      <trkpt lat="42.78348" lon="1.84522">
        <ele>1636.3</ele>
        <time>2017-04-29T12:08:22Z</time>
      </trkpt>
      <trkpt lat="42.78343" lon="1.84516">
        <ele>1633.42</ele>
        <time>2017-04-29T12:08:36Z</time>
      </trkpt>
      <trkpt lat="42.78334" lon="1.8451">
        <ele>1630.53</ele>
        <time>2017-04-29T12:08:48Z</time>
      </trkpt>
      <trkpt lat="42.78326" lon="1.84505">
        <ele>1628.61</ele>
        <time>2017-04-29T12:08:58Z</time>
      </trkpt>
      <trkpt lat="42.78316" lon="1.84506">
        <ele>1625.25</ele>
        <time>2017-04-29T12:09:10Z</time>
      </trkpt>
      <trkpt lat="42.78307" lon="1.84505">
        <ele>1623.8</ele>
        <time>2017-04-29T12:09:26Z</time>
      </trkpt>
      <trkpt lat="42.78299" lon="1.84507">
        <ele>1621.88</ele>
        <time>2017-04-29T12:09:39Z</time>
      </trkpt>
      <trkpt lat="42.78291" lon="1.84503">
        <ele>1618.52</ele>
        <time>2017-04-29T12:09:53Z</time>
      </trkpt>
      <trkpt lat="42.78282" lon="1.84506">
        <ele>1617.07</ele>
        <time>2017-04-29T12:10:03Z</time>
      </trkpt>
      <trkpt lat="42.78273" lon="1.84507">
        <ele>1616.59</ele>
        <time>2017-04-29T12:10:09Z</time>
      </trkpt>
      <trkpt lat="42.78266" lon="1.84504">
        <ele>1614.19</ele>
        <time>2017-04-29T12:10:18Z</time>
      </trkpt>
      <trkpt lat="42.78259" lon="1.84503">
        <ele>1612.27</ele>
        <time>2017-04-29T12:10:28Z</time>
      </trkpt>
      <trkpt lat="42.78251" lon="1.84499">
        <ele>1609.86</ele>
        <time>2017-04-29T12:10:41Z</time>
      </trkpt>
      <trkpt lat="42.78244" lon="1.84495">
        <ele>1607.94</ele>
        <time>2017-04-29T12:10:49Z</time>
      </trkpt>
      <trkpt lat="42.78234" lon="1.84498">
        <ele>1606.02</ele>
        <time>2017-04-29T12:11:00Z</time>
      </trkpt>
      <trkpt lat="42.78226" lon="1.84497">
        <ele>1604.58</ele>
        <time>2017-04-29T12:11:10Z</time>
      </trkpt>
      <trkpt lat="42.78217" lon="1.84501">
        <ele>1603.14</ele>
        <time>2017-04-29T12:11:22Z</time>
      </trkpt>
      <trkpt lat="42.78207" lon="1.84502">
        <ele>1601.69</ele>
        <time>2017-04-29T12:11:32Z</time>
      </trkpt>
      <trkpt lat="42.78199" lon="1.84503">
        <ele>1599.29</ele>
        <time>2017-04-29T12:11:44Z</time>
      </trkpt>
      <trkpt lat="42.78189" lon="1.84507">
        <ele>1596.41</ele>
        <time>2017-04-29T12:12:01Z</time>
      </trkpt>
      <trkpt lat="42.78182" lon="1.84518">
        <ele>1594</ele>
        <time>2017-04-29T12:12:13Z</time>
      </trkpt>
      <trkpt lat="42.78173" lon="1.84525">
        <ele>1591.12</ele>
        <time>2017-04-29T12:12:26Z</time>
      </trkpt>
      <trkpt lat="42.78165" lon="1.84528">
        <ele>1589.68</ele>
        <time>2017-04-29T12:12:38Z</time>
      </trkpt>
      <trkpt lat="42.78156" lon="1.84531">
        <ele>1587.75</ele>
        <time>2017-04-29T12:12:49Z</time>
      </trkpt>
      <trkpt lat="42.78148" lon="1.84534">
        <ele>1585.83</ele>
        <time>2017-04-29T12:13:01Z</time>
      </trkpt>
      <trkpt lat="42.78139" lon="1.84538">
        <ele>1583.43</ele>
        <time>2017-04-29T12:13:14Z</time>
      </trkpt>
      <trkpt lat="42.78129" lon="1.84535">
        <ele>1581.03</ele>
        <time>2017-04-29T12:13:27Z</time>
      </trkpt>
      <trkpt lat="42.7812" lon="1.84539">
        <ele>1579.1</ele>
        <time>2017-04-29T12:13:39Z</time>
      </trkpt>
      <trkpt lat="42.7811" lon="1.84542">
        <ele>1576.7</ele>
        <time>2017-04-29T12:13:55Z</time>
      </trkpt>
      <trkpt lat="42.78101" lon="1.84546">
        <ele>1573.33</ele>
        <time>2017-04-29T12:14:08Z</time>
      </trkpt>
      <trkpt lat="42.78096" lon="1.84555">
        <ele>1570.93</ele>
        <time>2017-04-29T12:14:21Z</time>
      </trkpt>
      <trkpt lat="42.7809" lon="1.84564">
        <ele>1568.53</ele>
        <time>2017-04-29T12:14:32Z</time>
      </trkpt>
      <trkpt lat="42.78086" lon="1.84576">
        <ele>1565.64</ele>
        <time>2017-04-29T12:14:46Z</time>
      </trkpt>
      <trkpt lat="42.78083" lon="1.84586">
        <ele>1563.24</ele>
        <time>2017-04-29T12:14:58Z</time>
      </trkpt>
      <trkpt lat="42.78076" lon="1.84597">
        <ele>1562.28</ele>
        <time>2017-04-29T12:15:10Z</time>
      </trkpt>
      <trkpt lat="42.78066" lon="1.84605">
        <ele>1560.36</ele>
        <time>2017-04-29T12:15:22Z</time>
      </trkpt>
      <trkpt lat="42.78056" lon="1.8461">
        <ele>1557.95</ele>
        <time>2017-04-29T12:15:35Z</time>
      </trkpt>
      <trkpt lat="42.7805" lon="1.84618">
        <ele>1557.47</ele>
        <time>2017-04-29T12:15:41Z</time>
      </trkpt>
      <trkpt lat="42.78042" lon="1.84619">
        <ele>1555.07</ele>
        <time>2017-04-29T12:15:51Z</time>
      </trkpt>
      <trkpt lat="42.78034" lon="1.84617">
        <ele>1551.71</ele>
        <time>2017-04-29T12:16:04Z</time>
      </trkpt>
      <trkpt lat="42.78027" lon="1.84621">
        <ele>1549.3</ele>
        <time>2017-04-29T12:16:15Z</time>
      </trkpt>
      <trkpt lat="42.7802" lon="1.84628">
        <ele>1548.82</ele>
        <time>2017-04-29T12:16:24Z</time>
      </trkpt>
      <trkpt lat="42.78013" lon="1.84634">
        <ele>1546.42</ele>
        <time>2017-04-29T12:16:35Z</time>
      </trkpt>
      <trkpt lat="42.78006" lon="1.84645">
        <ele>1545.46</ele>
        <time>2017-04-29T12:17:01Z</time>
      </trkpt>
      <trkpt lat="42.78002" lon="1.84656">
        <ele>1544.01</ele>
        <time>2017-04-29T12:17:09Z</time>
      </trkpt>
      <trkpt lat="42.78" lon="1.84666">
        <ele>1544.01</ele>
        <time>2017-04-29T12:17:13Z</time>
      </trkpt>
      <trkpt lat="42.77998" lon="1.84675">
        <ele>1543.53</ele>
        <time>2017-04-29T12:17:22Z</time>
      </trkpt>
      <trkpt lat="42.77991" lon="1.84684">
        <ele>1542.57</ele>
        <time>2017-04-29T12:17:32Z</time>
      </trkpt>
      <trkpt lat="42.77986" lon="1.84695">
        <ele>1542.09</ele>
        <time>2017-04-29T12:17:41Z</time>
      </trkpt>
      <trkpt lat="42.77978" lon="1.84698">
        <ele>1542.09</ele>
        <time>2017-04-29T12:18:09Z</time>
      </trkpt>
      <trkpt lat="42.77977" lon="1.84708">
        <ele>1542.09</ele>
        <time>2017-04-29T12:18:25Z</time>
      </trkpt>
      <trkpt lat="42.77975" lon="1.84721">
        <ele>1543.53</ele>
        <time>2017-04-29T12:18:35Z</time>
      </trkpt>
      <trkpt lat="42.77972" lon="1.84736">
        <ele>1544.98</ele>
        <time>2017-04-29T12:18:45Z</time>
      </trkpt>
      <trkpt lat="42.7797" lon="1.8475">
        <ele>1545.46</ele>
        <time>2017-04-29T12:18:55Z</time>
      </trkpt>
      <trkpt lat="42.77968" lon="1.84761">
        <ele>1545.94</ele>
        <time>2017-04-29T12:19:03Z</time>
      </trkpt>
      <trkpt lat="42.77971" lon="1.84775">
        <ele>1546.9</ele>
        <time>2017-04-29T12:19:12Z</time>
      </trkpt>
      <trkpt lat="42.77975" lon="1.84787">
        <ele>1548.34</ele>
        <time>2017-04-29T12:19:22Z</time>
      </trkpt>
      <trkpt lat="42.77978" lon="1.84801">
        <ele>1548.34</ele>
        <time>2017-04-29T12:19:33Z</time>
      </trkpt>
      <trkpt lat="42.77978" lon="1.84819">
        <ele>1549.3</ele>
        <time>2017-04-29T12:19:44Z</time>
      </trkpt>
      <trkpt lat="42.77975" lon="1.84832">
        <ele>1551.22</ele>
        <time>2017-04-29T12:19:53Z</time>
      </trkpt>
      <trkpt lat="42.77974" lon="1.84843">
        <ele>1552.19</ele>
        <time>2017-04-29T12:20:03Z</time>
      </trkpt>
      <trkpt lat="42.77976" lon="1.84857">
        <ele>1552.19</ele>
        <time>2017-04-29T12:20:14Z</time>
      </trkpt>
      <trkpt lat="42.77973" lon="1.84871">
        <ele>1553.15</ele>
        <time>2017-04-29T12:20:25Z</time>
      </trkpt>
      <trkpt lat="42.77968" lon="1.84882">
        <ele>1554.59</ele>
        <time>2017-04-29T12:20:38Z</time>
      </trkpt>
      <trkpt lat="42.7796" lon="1.84882">
        <ele>1552.67</ele>
        <time>2017-04-29T12:20:52Z</time>
      </trkpt>
      <trkpt lat="42.77953" lon="1.84876">
        <ele>1550.74</ele>
        <time>2017-04-29T12:21:16Z</time>
      </trkpt>
      <trkpt lat="42.77947" lon="1.8488">
        <ele>1547.38</ele>
        <time>2017-04-29T12:21:33Z</time>
      </trkpt>
      <trkpt lat="42.7794" lon="1.84883">
        <ele>1544.98</ele>
        <time>2017-04-29T12:21:56Z</time>
      </trkpt>
      <trkpt lat="42.7793" lon="1.84883">
        <ele>1542.57</ele>
        <time>2017-04-29T12:22:18Z</time>
      </trkpt>
      <trkpt lat="42.77925" lon="1.84883">
        <ele>1541.13</ele>
        <time>2017-04-29T12:22:38Z</time>
      </trkpt>
      <trkpt lat="42.77917" lon="1.8488">
        <ele>1537.77</ele>
        <time>2017-04-29T12:22:56Z</time>
      </trkpt>
      <trkpt lat="42.77911" lon="1.84889">
        <ele>1536.8</ele>
        <time>2017-04-29T12:23:18Z</time>
      </trkpt>
      <trkpt lat="42.77903" lon="1.84898">
        <ele>1534.4</ele>
        <time>2017-04-29T12:23:33Z</time>
      </trkpt>
      <trkpt lat="42.77896" lon="1.84909">
        <ele>1533.44</ele>
        <time>2017-04-29T12:23:42Z</time>
      </trkpt>
      <trkpt lat="42.7789" lon="1.84917">
        <ele>1532.48</ele>
        <time>2017-04-29T12:23:51Z</time>
      </trkpt>
      <trkpt lat="42.77884" lon="1.84924">
        <ele>1529.59</ele>
        <time>2017-04-29T12:24:01Z</time>
      </trkpt>
      <trkpt lat="42.77875" lon="1.84923">
        <ele>1527.19</ele>
        <time>2017-04-29T12:24:16Z</time>
      </trkpt>
      <trkpt lat="42.77867" lon="1.84925">
        <ele>1525.27</ele>
        <time>2017-04-29T12:24:31Z</time>
      </trkpt>
      <trkpt lat="42.77857" lon="1.8493">
        <ele>1523.83</ele>
        <time>2017-04-29T12:24:47Z</time>
      </trkpt>
      <trkpt lat="42.77848" lon="1.84933">
        <ele>1522.39</ele>
        <time>2017-04-29T12:24:57Z</time>
      </trkpt>
      <trkpt lat="42.77839" lon="1.84938">
        <ele>1519.98</ele>
        <time>2017-04-29T12:25:08Z</time>
      </trkpt>
      <trkpt lat="42.7783" lon="1.84941">
        <ele>1519.02</ele>
        <time>2017-04-29T12:25:20Z</time>
      </trkpt>
      <trkpt lat="42.7782" lon="1.84943">
        <ele>1516.14</ele>
        <time>2017-04-29T12:25:34Z</time>
      </trkpt>
      <trkpt lat="42.77809" lon="1.84951">
        <ele>1514.21</ele>
        <time>2017-04-29T12:25:50Z</time>
      </trkpt>
      <trkpt lat="42.77798" lon="1.84954">
        <ele>1513.25</ele>
        <time>2017-04-29T12:26:00Z</time>
      </trkpt>
      <trkpt lat="42.77789" lon="1.84958">
        <ele>1511.33</ele>
        <time>2017-04-29T12:26:11Z</time>
      </trkpt>
      <trkpt lat="42.77779" lon="1.84962">
        <ele>1509.89</ele>
        <time>2017-04-29T12:26:19Z</time>
      </trkpt>
      <trkpt lat="42.7777" lon="1.84967">
        <ele>1508.45</ele>
        <time>2017-04-29T12:26:29Z</time>
      </trkpt>
      <trkpt lat="42.77758" lon="1.84968">
        <ele>1506.52</ele>
        <time>2017-04-29T12:26:40Z</time>
      </trkpt>
      <trkpt lat="42.77748" lon="1.84973">
        <ele>1505.08</ele>
        <time>2017-04-29T12:26:53Z</time>
      </trkpt>
      <trkpt lat="42.77738" lon="1.84975">
        <ele>1503.64</ele>
        <time>2017-04-29T12:27:00Z</time>
      </trkpt>
      <trkpt lat="42.77729" lon="1.84978">
        <ele>1502.2</ele>
        <time>2017-04-29T12:27:13Z</time>
      </trkpt>
      <trkpt lat="42.77716" lon="1.84976">
        <ele>1500.76</ele>
        <time>2017-04-29T12:27:22Z</time>
      </trkpt>
      <trkpt lat="42.77708" lon="1.84979">
        <ele>1500.27</ele>
        <time>2017-04-29T12:27:28Z</time>
      </trkpt>
      <trkpt lat="42.777" lon="1.84983">
        <ele>1499.79</ele>
        <time>2017-04-29T12:27:37Z</time>
      </trkpt>
      <trkpt lat="42.7769" lon="1.84988">
        <ele>1499.31</ele>
        <time>2017-04-29T12:27:47Z</time>
      </trkpt>
      <trkpt lat="42.77679" lon="1.84994">
        <ele>1497.87</ele>
        <time>2017-04-29T12:27:56Z</time>
      </trkpt>
      <trkpt lat="42.7767" lon="1.85001">
        <ele>1497.39</ele>
        <time>2017-04-29T12:28:06Z</time>
      </trkpt>
      <trkpt lat="42.77662" lon="1.85011">
        <ele>1496.43</ele>
        <time>2017-04-29T12:28:13Z</time>
      </trkpt>
      <trkpt lat="42.77654" lon="1.85018">
        <ele>1496.43</ele>
        <time>2017-04-29T12:28:21Z</time>
      </trkpt>
      <trkpt lat="42.77646" lon="1.85027">
        <ele>1497.39</ele>
        <time>2017-04-29T12:28:32Z</time>
      </trkpt>
      <trkpt lat="42.77635" lon="1.85033">
        <ele>1494.99</ele>
        <time>2017-04-29T12:28:42Z</time>
      </trkpt>
      <trkpt lat="42.77627" lon="1.85038">
        <ele>1494.51</ele>
        <time>2017-04-29T12:28:47Z</time>
      </trkpt>
      <trkpt lat="42.77617" lon="1.85045">
        <ele>1494.03</ele>
        <time>2017-04-29T12:28:58Z</time>
      </trkpt>
      <trkpt lat="42.7761" lon="1.85051">
        <ele>1493.55</ele>
        <time>2017-04-29T12:29:04Z</time>
      </trkpt>
      <trkpt lat="42.77602" lon="1.85057">
        <ele>1493.06</ele>
        <time>2017-04-29T12:29:11Z</time>
      </trkpt>
      <trkpt lat="42.77595" lon="1.85062">
        <ele>1492.1</ele>
        <time>2017-04-29T12:29:16Z</time>
      </trkpt>
      <trkpt lat="42.77588" lon="1.85071">
        <ele>1491.62</ele>
        <time>2017-04-29T12:29:27Z</time>
      </trkpt>
      <trkpt lat="42.77581" lon="1.85078">
        <ele>1492.1</ele>
        <time>2017-04-29T12:29:32Z</time>
      </trkpt>
      <trkpt lat="42.77571" lon="1.85084">
        <ele>1491.14</ele>
        <time>2017-04-29T12:29:43Z</time>
      </trkpt>
      <trkpt lat="42.7756" lon="1.85092">
        <ele>1489.7</ele>
        <time>2017-04-29T12:29:52Z</time>
      </trkpt>
      <trkpt lat="42.77553" lon="1.851">
        <ele>1489.7</ele>
        <time>2017-04-29T12:29:57Z</time>
      </trkpt>
      <trkpt lat="42.77546" lon="1.85108">
        <ele>1489.22</ele>
        <time>2017-04-29T12:30:03Z</time>
      </trkpt>
      <trkpt lat="42.77539" lon="1.85117">
        <ele>1487.3</ele>
        <time>2017-04-29T12:30:13Z</time>
      </trkpt>
      <trkpt lat="42.77531" lon="1.85123">
        <ele>1487.78</ele>
        <time>2017-04-29T12:30:19Z</time>
      </trkpt>
      <trkpt lat="42.77524" lon="1.85128">
        <ele>1487.3</ele>
        <time>2017-04-29T12:30:23Z</time>
      </trkpt>
      <trkpt lat="42.77518" lon="1.85131">
        <ele>1486.34</ele>
        <time>2017-04-29T12:30:37Z</time>
      </trkpt>
      <trkpt lat="42.77511" lon="1.85134">
        <ele>1484.89</ele>
        <time>2017-04-29T12:30:50Z</time>
      </trkpt>
      <trkpt lat="42.77504" lon="1.85143">
        <ele>1483.93</ele>
        <time>2017-04-29T12:30:57Z</time>
      </trkpt>
      <trkpt lat="42.77496" lon="1.8515">
        <ele>1482.97</ele>
        <time>2017-04-29T12:31:07Z</time>
      </trkpt>
      <trkpt lat="42.77489" lon="1.85156">
        <ele>1481.53</ele>
        <time>2017-04-29T12:31:17Z</time>
      </trkpt>
      <trkpt lat="42.77482" lon="1.85163">
        <ele>1481.53</ele>
        <time>2017-04-29T12:31:26Z</time>
      </trkpt>
      <trkpt lat="42.77474" lon="1.85172">
        <ele>1480.09</ele>
        <time>2017-04-29T12:31:36Z</time>
      </trkpt>
      <trkpt lat="42.77466" lon="1.85178">
        <ele>1480.09</ele>
        <time>2017-04-29T12:31:45Z</time>
      </trkpt>
      <trkpt lat="42.77459" lon="1.85188">
        <ele>1479.13</ele>
        <time>2017-04-29T12:31:55Z</time>
      </trkpt>
      <trkpt lat="42.77451" lon="1.85196">
        <ele>1478.65</ele>
        <time>2017-04-29T12:32:05Z</time>
      </trkpt>
      <trkpt lat="42.77443" lon="1.85202">
        <ele>1478.65</ele>
        <time>2017-04-29T12:32:14Z</time>
      </trkpt>
      <trkpt lat="42.77434" lon="1.85206">
        <ele>1478.16</ele>
        <time>2017-04-29T12:32:23Z</time>
      </trkpt>
      <trkpt lat="42.77426" lon="1.85211">
        <ele>1477.2</ele>
        <time>2017-04-29T12:32:32Z</time>
      </trkpt>
      <trkpt lat="42.77422" lon="1.85219">
        <ele>1476.72</ele>
        <time>2017-04-29T12:32:38Z</time>
      </trkpt>
      <trkpt lat="42.77415" lon="1.85229">
        <ele>1476.72</ele>
        <time>2017-04-29T12:32:49Z</time>
      </trkpt>
      <trkpt lat="42.7741" lon="1.85241">
        <ele>1476.24</ele>
        <time>2017-04-29T12:32:58Z</time>
      </trkpt>
      <trkpt lat="42.77408" lon="1.85253">
        <ele>1476.24</ele>
        <time>2017-04-29T12:33:03Z</time>
      </trkpt>
      <trkpt lat="42.77407" lon="1.85264">
        <ele>1476.24</ele>
        <time>2017-04-29T12:33:12Z</time>
      </trkpt>
      <trkpt lat="42.77409" lon="1.85278">
        <ele>1475.28</ele>
        <time>2017-04-29T12:33:22Z</time>
      </trkpt>
      <trkpt lat="42.77412" lon="1.85289">
        <ele>1475.28</ele>
        <time>2017-04-29T12:33:29Z</time>
      </trkpt>
      <trkpt lat="42.77413" lon="1.85301">
        <ele>1474.32</ele>
        <time>2017-04-29T12:33:36Z</time>
      </trkpt>
      <trkpt lat="42.77412" lon="1.85314">
        <ele>1473.84</ele>
        <time>2017-04-29T12:33:46Z</time>
      </trkpt>
      <trkpt lat="42.77413" lon="1.85328">
        <ele>1472.88</ele>
        <time>2017-04-29T12:33:53Z</time>
      </trkpt>
      <trkpt lat="42.77411" lon="1.85342">
        <ele>1472.4</ele>
        <time>2017-04-29T12:34:04Z</time>
      </trkpt>
      <trkpt lat="42.77409" lon="1.85354">
        <ele>1471.44</ele>
        <time>2017-04-29T12:34:10Z</time>
      </trkpt>
      <trkpt lat="42.77406" lon="1.85366">
        <ele>1470.47</ele>
        <time>2017-04-29T12:34:19Z</time>
      </trkpt>
      <trkpt lat="42.77401" lon="1.85373">
        <ele>1469.51</ele>
        <time>2017-04-29T12:34:25Z</time>
      </trkpt>
      <trkpt lat="42.77391" lon="1.85377">
        <ele>1468.55</ele>
        <time>2017-04-29T12:34:35Z</time>
      </trkpt>
      <trkpt lat="42.77381" lon="1.85378">
        <ele>1468.07</ele>
        <time>2017-04-29T12:34:44Z</time>
      </trkpt>
      <trkpt lat="42.77371" lon="1.85379">
        <ele>1468.55</ele>
        <time>2017-04-29T12:34:53Z</time>
      </trkpt>
      <trkpt lat="42.77359" lon="1.8538">
        <ele>1468.07</ele>
        <time>2017-04-29T12:35:03Z</time>
      </trkpt>
      <trkpt lat="42.77349" lon="1.85382">
        <ele>1467.59</ele>
        <time>2017-04-29T12:35:12Z</time>
      </trkpt>
      <trkpt lat="42.77338" lon="1.85385">
        <ele>1467.11</ele>
        <time>2017-04-29T12:35:20Z</time>
      </trkpt>
      <trkpt lat="42.77329" lon="1.85391">
        <ele>1467.11</ele>
        <time>2017-04-29T12:35:28Z</time>
      </trkpt>
      <trkpt lat="42.7732" lon="1.85397">
        <ele>1466.15</ele>
        <time>2017-04-29T12:35:37Z</time>
      </trkpt>
      <trkpt lat="42.77313" lon="1.85406">
        <ele>1465.67</ele>
        <time>2017-04-29T12:35:46Z</time>
      </trkpt>
      <trkpt lat="42.77306" lon="1.85416">
        <ele>1464.71</ele>
        <time>2017-04-29T12:35:55Z</time>
      </trkpt>
      <trkpt lat="42.77298" lon="1.85424">
        <ele>1464.71</ele>
        <time>2017-04-29T12:36:04Z</time>
      </trkpt>
      <trkpt lat="42.77289" lon="1.85429">
        <ele>1464.71</ele>
        <time>2017-04-29T12:36:13Z</time>
      </trkpt>
      <trkpt lat="42.7728" lon="1.85435">
        <ele>1464.71</ele>
        <time>2017-04-29T12:36:21Z</time>
      </trkpt>
      <trkpt lat="42.7727" lon="1.85434">
        <ele>1465.19</ele>
        <time>2017-04-29T12:36:29Z</time>
      </trkpt>
      <trkpt lat="42.77261" lon="1.85438">
        <ele>1465.19</ele>
        <time>2017-04-29T12:36:39Z</time>
      </trkpt>
      <trkpt lat="42.77252" lon="1.85442">
        <ele>1464.71</ele>
        <time>2017-04-29T12:36:49Z</time>
      </trkpt>
      <trkpt lat="42.77246" lon="1.85452">
        <ele>1465.67</ele>
        <time>2017-04-29T12:36:58Z</time>
      </trkpt>
      <trkpt lat="42.7724" lon="1.85464">
        <ele>1465.67</ele>
        <time>2017-04-29T12:37:07Z</time>
      </trkpt>
      <trkpt lat="42.77236" lon="1.85476">
        <ele>1466.63</ele>
        <time>2017-04-29T12:37:15Z</time>
      </trkpt>
      <trkpt lat="42.77233" lon="1.85489">
        <ele>1466.63</ele>
        <time>2017-04-29T12:37:23Z</time>
      </trkpt>
      <trkpt lat="42.77229" lon="1.85501">
        <ele>1467.11</ele>
        <time>2017-04-29T12:37:32Z</time>
      </trkpt>
      <trkpt lat="42.77226" lon="1.85515">
        <ele>1467.11</ele>
        <time>2017-04-29T12:37:41Z</time>
      </trkpt>
      <trkpt lat="42.77222" lon="1.85529">
        <ele>1467.11</ele>
        <time>2017-04-29T12:37:50Z</time>
      </trkpt>
      <trkpt lat="42.77216" lon="1.85542">
        <ele>1468.07</ele>
        <time>2017-04-29T12:38:00Z</time>
      </trkpt>
      <trkpt lat="42.77211" lon="1.85556">
        <ele>1467.59</ele>
        <time>2017-04-29T12:38:10Z</time>
      </trkpt>
      <trkpt lat="42.77204" lon="1.85566">
        <ele>1468.55</ele>
        <time>2017-04-29T12:38:19Z</time>
      </trkpt>
      <trkpt lat="42.77196" lon="1.85572">
        <ele>1468.55</ele>
        <time>2017-04-29T12:38:28Z</time>
      </trkpt>
      <trkpt lat="42.77185" lon="1.85574">
        <ele>1469.51</ele>
        <time>2017-04-29T12:38:38Z</time>
      </trkpt>
      <trkpt lat="42.77175" lon="1.85576">
        <ele>1469.51</ele>
        <time>2017-04-29T12:38:50Z</time>
      </trkpt>
      <trkpt lat="42.77165" lon="1.85577">
        <ele>1469.51</ele>
        <time>2017-04-29T12:38:58Z</time>
      </trkpt>
      <trkpt lat="42.77155" lon="1.85579">
        <ele>1469.99</ele>
        <time>2017-04-29T12:39:08Z</time>
      </trkpt>
      <trkpt lat="42.77142" lon="1.8558">
        <ele>1470.95</ele>
        <time>2017-04-29T12:39:19Z</time>
      </trkpt>
      <trkpt lat="42.7713" lon="1.85566">
        <ele>1471.92</ele>
        <time>2017-04-29T12:39:30Z</time>
      </trkpt>
      <trkpt lat="42.77122" lon="1.85553">
        <ele>1472.88</ele>
        <time>2017-04-29T12:39:44Z</time>
      </trkpt>
      <trkpt lat="42.77113" lon="1.85545">
        <ele>1473.36</ele>
        <time>2017-04-29T12:39:54Z</time>
      </trkpt>
      <trkpt lat="42.77101" lon="1.85544">
        <ele>1472.88</ele>
        <time>2017-04-29T12:40:04Z</time>
      </trkpt>
      <trkpt lat="42.7709" lon="1.85546">
        <ele>1472.4</ele>
        <time>2017-04-29T12:40:15Z</time>
      </trkpt>
      <trkpt lat="42.7708" lon="1.85547">
        <ele>1471.44</ele>
        <time>2017-04-29T12:40:25Z</time>
      </trkpt>
      <trkpt lat="42.77069" lon="1.85545">
        <ele>1470.47</ele>
        <time>2017-04-29T12:40:36Z</time>
      </trkpt>
      <trkpt lat="42.77059" lon="1.85539">
        <ele>1469.03</ele>
        <time>2017-04-29T12:40:47Z</time>
      </trkpt>
      <trkpt lat="42.7705" lon="1.85537">
        <ele>1468.07</ele>
        <time>2017-04-29T12:40:56Z</time>
      </trkpt>
      <trkpt lat="42.77038" lon="1.85533">
        <ele>1465.67</ele>
        <time>2017-04-29T12:41:07Z</time>
      </trkpt>
      <trkpt lat="42.77026" lon="1.85533">
        <ele>1464.23</ele>
        <time>2017-04-29T12:41:19Z</time>
      </trkpt>
      <trkpt lat="42.77012" lon="1.85533">
        <ele>1462.78</ele>
        <time>2017-04-29T12:41:32Z</time>
      </trkpt>
      <trkpt lat="42.77002" lon="1.85532">
        <ele>1460.86</ele>
        <time>2017-04-29T12:41:43Z</time>
      </trkpt>
      <trkpt lat="42.76991" lon="1.8553">
        <ele>1457.5</ele>
        <time>2017-04-29T12:42:00Z</time>
      </trkpt>
      <trkpt lat="42.76964" lon="1.85533">
        <ele>1455.57</ele>
        <time>2017-04-29T12:42:19Z</time>
      </trkpt>
      <trkpt lat="42.76953" lon="1.85546">
        <ele>1454.13</ele>
        <time>2017-04-29T12:42:31Z</time>
      </trkpt>
      <trkpt lat="42.76949" lon="1.85561">
        <ele>1452.69</ele>
        <time>2017-04-29T12:42:42Z</time>
      </trkpt>
      <trkpt lat="42.76945" lon="1.8558">
        <ele>1450.29</ele>
        <time>2017-04-29T12:42:55Z</time>
      </trkpt>
      <trkpt lat="42.7694" lon="1.85596">
        <ele>1448.36</ele>
        <time>2017-04-29T12:43:06Z</time>
      </trkpt>
      <trkpt lat="42.76937" lon="1.85611">
        <ele>1447.4</ele>
        <time>2017-04-29T12:43:16Z</time>
      </trkpt>
      <trkpt lat="42.76933" lon="1.85627">
        <ele>1445</ele>
        <time>2017-04-29T12:43:27Z</time>
      </trkpt>
      <trkpt lat="42.7693" lon="1.85644">
        <ele>1443.08</ele>
        <time>2017-04-29T12:43:38Z</time>
      </trkpt>
      <trkpt lat="42.76926" lon="1.85659">
        <ele>1441.15</ele>
        <time>2017-04-29T12:43:49Z</time>
      </trkpt>
      <trkpt lat="42.76923" lon="1.85674">
        <ele>1440.19</ele>
        <time>2017-04-29T12:44:00Z</time>
      </trkpt>
      <trkpt lat="42.7692" lon="1.85694">
        <ele>1438.27</ele>
        <time>2017-04-29T12:44:14Z</time>
      </trkpt>
      <trkpt lat="42.7691" lon="1.85697">
        <ele>1435.87</ele>
        <time>2017-04-29T12:44:26Z</time>
      </trkpt>
      <trkpt lat="42.76899" lon="1.85692">
        <ele>1434.42</ele>
        <time>2017-04-29T12:44:37Z</time>
      </trkpt>
      <trkpt lat="42.76889" lon="1.85682">
        <ele>1432.98</ele>
        <time>2017-04-29T12:44:48Z</time>
      </trkpt>
      <trkpt lat="42.76879" lon="1.85673">
        <ele>1431.06</ele>
        <time>2017-04-29T12:44:58Z</time>
      </trkpt>
      <trkpt lat="42.7687" lon="1.85664">
        <ele>1430.58</ele>
        <time>2017-04-29T12:45:08Z</time>
      </trkpt>
      <trkpt lat="42.7686" lon="1.85657">
        <ele>1429.14</ele>
        <time>2017-04-29T12:45:18Z</time>
      </trkpt>
      <trkpt lat="42.7685" lon="1.85652">
        <ele>1427.7</ele>
        <time>2017-04-29T12:45:29Z</time>
      </trkpt>
      <trkpt lat="42.76836" lon="1.85645">
        <ele>1426.25</ele>
        <time>2017-04-29T12:45:42Z</time>
      </trkpt>
      <trkpt lat="42.76826" lon="1.85637">
        <ele>1424.81</ele>
        <time>2017-04-29T12:45:55Z</time>
      </trkpt>
      <trkpt lat="42.76814" lon="1.85624">
        <ele>1422.89</ele>
        <time>2017-04-29T12:46:25Z</time>
      </trkpt>
      <trkpt lat="42.76806" lon="1.85606">
        <ele>1420</ele>
        <time>2017-04-29T12:46:42Z</time>
      </trkpt>
      <trkpt lat="42.76798" lon="1.85583">
        <ele>1418.56</ele>
        <time>2017-04-29T12:46:58Z</time>
      </trkpt>
      <trkpt lat="42.76795" lon="1.85567">
        <ele>1417.6</ele>
        <time>2017-04-29T12:47:09Z</time>
      </trkpt>
      <trkpt lat="42.76789" lon="1.85547">
        <ele>1416.64</ele>
        <time>2017-04-29T12:47:21Z</time>
      </trkpt>
      <trkpt lat="42.76786" lon="1.85529">
        <ele>1416.16</ele>
        <time>2017-04-29T12:47:33Z</time>
      </trkpt>
      <trkpt lat="42.76781" lon="1.85511">
        <ele>1414.72</ele>
        <time>2017-04-29T12:47:45Z</time>
      </trkpt>
      <trkpt lat="42.76779" lon="1.85495">
        <ele>1413.76</ele>
        <time>2017-04-29T12:47:55Z</time>
      </trkpt>
      <trkpt lat="42.76781" lon="1.85477">
        <ele>1411.83</ele>
        <time>2017-04-29T12:48:07Z</time>
      </trkpt>
      <trkpt lat="42.76784" lon="1.85459">
        <ele>1411.35</ele>
        <time>2017-04-29T12:48:18Z</time>
      </trkpt>
      <trkpt lat="42.76784" lon="1.85443">
        <ele>1409.91</ele>
        <time>2017-04-29T12:48:28Z</time>
      </trkpt>
      <trkpt lat="42.76782" lon="1.85427">
        <ele>1408.95</ele>
        <time>2017-04-29T12:48:39Z</time>
      </trkpt>
      <trkpt lat="42.7678" lon="1.85409">
        <ele>1407.51</ele>
        <time>2017-04-29T12:48:50Z</time>
      </trkpt>
      <trkpt lat="42.76776" lon="1.85393">
        <ele>1406.07</ele>
        <time>2017-04-29T12:49:00Z</time>
      </trkpt>
      <trkpt lat="42.76777" lon="1.85376">
        <ele>1404.62</ele>
        <time>2017-04-29T12:49:12Z</time>
      </trkpt>
      <trkpt lat="42.76782" lon="1.85362">
        <ele>1402.7</ele>
        <time>2017-04-29T12:49:23Z</time>
      </trkpt>
      <trkpt lat="42.76787" lon="1.85351">
        <ele>1400.78</ele>
        <time>2017-04-29T12:49:32Z</time>
      </trkpt>
      <trkpt lat="42.76792" lon="1.85338">
        <ele>1399.34</ele>
        <time>2017-04-29T12:49:41Z</time>
      </trkpt>
      <trkpt lat="42.76794" lon="1.85324">
        <ele>1398.37</ele>
        <time>2017-04-29T12:49:49Z</time>
      </trkpt>
      <trkpt lat="42.76795" lon="1.8531">
        <ele>1396.93</ele>
        <time>2017-04-29T12:49:59Z</time>
      </trkpt>
      <trkpt lat="42.76792" lon="1.85293">
        <ele>1395.49</ele>
        <time>2017-04-29T12:50:10Z</time>
      </trkpt>
      <trkpt lat="42.76786" lon="1.85274">
        <ele>1394.05</ele>
        <time>2017-04-29T12:50:22Z</time>
      </trkpt>
      <trkpt lat="42.76778" lon="1.85254">
        <ele>1392.61</ele>
        <time>2017-04-29T12:50:33Z</time>
      </trkpt>
      <trkpt lat="42.7677" lon="1.85242">
        <ele>1392.13</ele>
        <time>2017-04-29T12:50:43Z</time>
      </trkpt>
      <trkpt lat="42.76762" lon="1.85232">
        <ele>1390.68</ele>
        <time>2017-04-29T12:50:53Z</time>
      </trkpt>
      <trkpt lat="42.76753" lon="1.85225">
        <ele>1390.2</ele>
        <time>2017-04-29T12:51:02Z</time>
      </trkpt>
      <trkpt lat="42.76743" lon="1.85218">
        <ele>1388.76</ele>
        <time>2017-04-29T12:51:12Z</time>
      </trkpt>
      <trkpt lat="42.76733" lon="1.85212">
        <ele>1386.84</ele>
        <time>2017-04-29T12:51:21Z</time>
      </trkpt>
      <trkpt lat="42.76722" lon="1.85208">
        <ele>1386.84</ele>
        <time>2017-04-29T12:51:29Z</time>
      </trkpt>
      <trkpt lat="42.76713" lon="1.85204">
        <ele>1385.88</ele>
        <time>2017-04-29T12:51:38Z</time>
      </trkpt>
      <trkpt lat="42.76704" lon="1.85194">
        <ele>1383.96</ele>
        <time>2017-04-29T12:51:48Z</time>
      </trkpt>
      <trkpt lat="42.76696" lon="1.85184">
        <ele>1382.51</ele>
        <time>2017-04-29T12:51:58Z</time>
      </trkpt>
      <trkpt lat="42.76687" lon="1.85175">
        <ele>1381.07</ele>
        <time>2017-04-29T12:52:08Z</time>
      </trkpt>
      <trkpt lat="42.7668" lon="1.85166">
        <ele>1380.59</ele>
        <time>2017-04-29T12:52:17Z</time>
      </trkpt>
      <trkpt lat="42.76673" lon="1.85158">
        <ele>1378.67</ele>
        <time>2017-04-29T12:52:22Z</time>
      </trkpt>
      <trkpt lat="42.76667" lon="1.85149">
        <ele>1377.71</ele>
        <time>2017-04-29T12:52:32Z</time>
      </trkpt>
      <trkpt lat="42.76662" lon="1.85139">
        <ele>1377.23</ele>
        <time>2017-04-29T12:52:37Z</time>
      </trkpt>
      <trkpt lat="42.76656" lon="1.8513">
        <ele>1376.75</ele>
        <time>2017-04-29T12:52:48Z</time>
      </trkpt>
      <trkpt lat="42.76652" lon="1.85117">
        <ele>1375.78</ele>
        <time>2017-04-29T12:52:57Z</time>
      </trkpt>
      <trkpt lat="42.76648" lon="1.85105">
        <ele>1374.82</ele>
        <time>2017-04-29T12:53:06Z</time>
      </trkpt>
      <trkpt lat="42.76646" lon="1.85095">
        <ele>1373.38</ele>
        <time>2017-04-29T12:53:14Z</time>
      </trkpt>
      <trkpt lat="42.7664" lon="1.85082">
        <ele>1372.42</ele>
        <time>2017-04-29T12:53:22Z</time>
      </trkpt>
      <trkpt lat="42.76631" lon="1.85078">
        <ele>1370.5</ele>
        <time>2017-04-29T12:53:31Z</time>
      </trkpt>
    </trkseg>
  </trk>
</gpx>